<?xml version="1.0" encoding="UTF-8"?>
<TrainingCenterDatabase xmlns="http://www.garmin.com/xmlschemas/TrainingCenterDatabase/v2" xmlns:xsi="http://www.w3.org/2001/XMLSchema-instance" xsi:schemaLocation="http://www.garmin.com/xmlschemas/TrainingCenterDatabase/v2 http://www.garmin.com/xmlschemas/TrainingCenterDatabasev2.xsd">
  <Activities>
    <Activity Sport="Other">
      <Id>2021-10-20T05:50:47.000Z</Id>
      <Lap StartTime="2021-10-20T05:50:47.000Z">
        <TotalTimeSeconds>1944</TotalTimeSeconds>
        <DistanceMeters>5620</DistanceMeters>
        <Track>
          <Trackpoint>
            <Time>2021-10-20T05:50:47.000Z</Time>
            <Position>
              <LatitudeDegrees>39.02493350207805633544921875</LatitudeDegrees>
              <LongitudeDegrees>-6.89450402744114398956298828125</LongitudeDegrees>
            </Position>
            <AltitudeMeters>205.600006103515625</AltitudeMeters>
            <DistanceMeters>0</DistanceMeters>
          </Trackpoint>
          <Trackpoint>
            <Time>2021-10-20T05:50:50.000Z</Time>
            <Position>
              <LatitudeDegrees>39.02497666887938976287841796875</LatitudeDegrees>
              <LongitudeDegrees>-6.8944846652448177337646484375</LongitudeDegrees>
            </Position>
            <AltitudeMeters>205.399993896484375</AltitudeMeters>
            <DistanceMeters>5.0872585041822</DistanceMeters>
          </Trackpoint>
          <Trackpoint>
            <Time>2021-10-20T05:50:54.000Z</Time>
            <Position>
              <LatitudeDegrees>39.0250785090029239654541015625</LatitudeDegrees>
              <LongitudeDegrees>-6.89448005519807338714599609375</LongitudeDegrees>
            </Position>
            <AltitudeMeters>205</AltitudeMeters>
            <DistanceMeters>16.42932485122</DistanceMeters>
          </Trackpoint>
          <Trackpoint>
            <Time>2021-10-20T05:50:55.000Z</Time>
            <Position>
              <LatitudeDegrees>39.02510373853147029876708984375</LatitudeDegrees>
              <LongitudeDegrees>-6.89448080956935882568359375</LongitudeDegrees>
            </Position>
            <AltitudeMeters>204.8000030517578125</AltitudeMeters>
            <DistanceMeters>19.238646266084</DistanceMeters>
          </Trackpoint>
          <Trackpoint>
            <Time>2021-10-20T05:50:56.000Z</Time>
            <Position>
              <LatitudeDegrees>39.0251298062503337860107421875</LatitudeDegrees>
              <LongitudeDegrees>-6.89448416233062744140625</LongitudeDegrees>
            </Position>
            <AltitudeMeters>204.8000030517578125</AltitudeMeters>
            <DistanceMeters>22.155207942135</DistanceMeters>
          </Trackpoint>
          <Trackpoint>
            <Time>2021-10-20T05:50:57.000Z</Time>
            <Position>
              <LatitudeDegrees>39.0251569636166095733642578125</LatitudeDegrees>
              <LongitudeDegrees>-6.894486509263515472412109375</LongitudeDegrees>
            </Position>
            <AltitudeMeters>204.600006103515625</AltitudeMeters>
            <DistanceMeters>25.185651431709</DistanceMeters>
          </Trackpoint>
          <Trackpoint>
            <Time>2021-10-20T05:51:02.000Z</Time>
            <Position>
              <LatitudeDegrees>39.02529031969606876373291015625</LatitudeDegrees>
              <LongitudeDegrees>-6.8944947235286235809326171875</LongitudeDegrees>
            </Position>
            <AltitudeMeters>202.8000030517578125</AltitudeMeters>
            <DistanceMeters>40.045411163418</DistanceMeters>
          </Trackpoint>
          <Trackpoint>
            <Time>2021-10-20T05:51:04.000Z</Time>
            <Position>
              <LatitudeDegrees>39.02534144930541515350341796875</LatitudeDegrees>
              <LongitudeDegrees>-6.89449782483279705047607421875</LongitudeDegrees>
            </Position>
            <AltitudeMeters>202</AltitudeMeters>
            <DistanceMeters>45.742260708524</DistanceMeters>
          </Trackpoint>
          <Trackpoint>
            <Time>2021-10-20T05:51:05.000Z</Time>
            <Position>
              <LatitudeDegrees>39.02536927722394466400146484375</LatitudeDegrees>
              <LongitudeDegrees>-6.8944994173943996429443359375</LongitudeDegrees>
            </Position>
            <AltitudeMeters>201.600006103515625</AltitudeMeters>
            <DistanceMeters>48.841938326659</DistanceMeters>
          </Trackpoint>
          <Trackpoint>
            <Time>2021-10-20T05:51:06.000Z</Time>
            <Position>
              <LatitudeDegrees>39.02539626695215702056884765625</LatitudeDegrees>
              <LongitudeDegrees>-6.89449824392795562744140625</LongitudeDegrees>
            </Position>
            <AltitudeMeters>201.1999969482421875</AltitudeMeters>
            <DistanceMeters>51.846946886373</DistanceMeters>
          </Trackpoint>
          <Trackpoint>
            <Time>2021-10-20T05:51:09.000Z</Time>
            <Position>
              <LatitudeDegrees>39.0254719555377960205078125</LatitudeDegrees>
              <LongitudeDegrees>-6.89449111931025981903076171875</LongitudeDegrees>
            </Position>
            <AltitudeMeters>200.8000030517578125</AltitudeMeters>
            <DistanceMeters>60.293640558082</DistanceMeters>
          </Trackpoint>
          <Trackpoint>
            <Time>2021-10-20T05:51:11.000Z</Time>
            <Position>
              <LatitudeDegrees>39.02552300132811069488525390625</LatitudeDegrees>
              <LongitudeDegrees>-6.8944843299686908721923828125</LongitudeDegrees>
            </Position>
            <AltitudeMeters>200.8000030517578125</AltitudeMeters>
            <DistanceMeters>66.004738185996</DistanceMeters>
          </Trackpoint>
          <Trackpoint>
            <Time>2021-10-20T05:51:14.000Z</Time>
            <Position>
              <LatitudeDegrees>39.02560296468436717987060546875</LatitudeDegrees>
              <LongitudeDegrees>-6.894475109875202178955078125</LongitudeDegrees>
            </Position>
            <AltitudeMeters>200.8000030517578125</AltitudeMeters>
            <DistanceMeters>74.940281589587</DistanceMeters>
          </Trackpoint>
          <Trackpoint>
            <Time>2021-10-20T05:51:16.000Z</Time>
            <Position>
              <LatitudeDegrees>39.0256548486649990081787109375</LatitudeDegrees>
              <LongitudeDegrees>-6.8944823183119297027587890625</LongitudeDegrees>
            </Position>
            <AltitudeMeters>200.8000030517578125</AltitudeMeters>
            <DistanceMeters>80.747805633288</DistanceMeters>
          </Trackpoint>
          <Trackpoint>
            <Time>2021-10-20T05:51:18.000Z</Time>
            <Position>
              <LatitudeDegrees>39.02570907957851886749267578125</LatitudeDegrees>
              <LongitudeDegrees>-6.89448726363480091094970703125</LongitudeDegrees>
            </Position>
            <AltitudeMeters>200.8000030517578125</AltitudeMeters>
            <DistanceMeters>86.79974664892</DistanceMeters>
          </Trackpoint>
          <Trackpoint>
            <Time>2021-10-20T05:51:20.000Z</Time>
            <Position>
              <LatitudeDegrees>39.025768674910068511962890625</LatitudeDegrees>
              <LongitudeDegrees>-6.89449631609022617340087890625</LongitudeDegrees>
            </Position>
            <AltitudeMeters>201.1999969482421875</AltitudeMeters>
            <DistanceMeters>93.479387934916</DistanceMeters>
          </Trackpoint>
          <Trackpoint>
            <Time>2021-10-20T05:51:21.000Z</Time>
            <Position>
              <LatitudeDegrees>39.02579809539020061492919921875</LatitudeDegrees>
              <LongitudeDegrees>-6.89449950121343135833740234375</LongitudeDegrees>
            </Position>
            <AltitudeMeters>201.399993896484375</AltitudeMeters>
            <DistanceMeters>96.765718932696</DistanceMeters>
          </Trackpoint>
          <Trackpoint>
            <Time>2021-10-20T05:51:26.000Z</Time>
            <Position>
              <LatitudeDegrees>39.025940001010894775390625</LatitudeDegrees>
              <LongitudeDegrees>-6.89448005519807338714599609375</LongitudeDegrees>
            </Position>
            <AltitudeMeters>201.8000030517578125</AltitudeMeters>
            <DistanceMeters>112.6491151593</DistanceMeters>
          </Trackpoint>
          <Trackpoint>
            <Time>2021-10-20T05:51:32.000Z</Time>
            <Position>
              <LatitudeDegrees>39.0260995924472808837890625</LatitudeDegrees>
              <LongitudeDegrees>-6.8943545781075954437255859375</LongitudeDegrees>
            </Position>
            <AltitudeMeters>202.399993896484375</AltitudeMeters>
            <DistanceMeters>133.46321969146</DistanceMeters>
          </Trackpoint>
          <Trackpoint>
            <Time>2021-10-20T05:51:37.000Z</Time>
            <Position>
              <LatitudeDegrees>39.02623278088867664337158203125</LatitudeDegrees>
              <LongitudeDegrees>-6.89424611628055572509765625</LongitudeDegrees>
            </Position>
            <AltitudeMeters>202.8000030517578125</AltitudeMeters>
            <DistanceMeters>151.00485259448</DistanceMeters>
          </Trackpoint>
          <Trackpoint>
            <Time>2021-10-20T05:51:39.000Z</Time>
            <Position>
              <LatitudeDegrees>39.02628240175545215606689453125</LatitudeDegrees>
              <LongitudeDegrees>-6.89420931972563266754150390625</LongitudeDegrees>
            </Position>
            <AltitudeMeters>202.8000030517578125</AltitudeMeters>
            <DistanceMeters>157.37802165272</DistanceMeters>
          </Trackpoint>
          <Trackpoint>
            <Time>2021-10-20T05:51:40.000Z</Time>
            <Position>
              <LatitudeDegrees>39.02630754746496677398681640625</LatitudeDegrees>
              <LongitudeDegrees>-6.89419574104249477386474609375</LongitudeDegrees>
            </Position>
            <AltitudeMeters>202.8000030517578125</AltitudeMeters>
            <DistanceMeters>160.41441886805</DistanceMeters>
          </Trackpoint>
          <Trackpoint>
            <Time>2021-10-20T05:51:41.000Z</Time>
            <Position>
              <LatitudeDegrees>39.02633453719317913055419921875</LatitudeDegrees>
              <LongitudeDegrees>-6.89418434165418148040771484375</LongitudeDegrees>
            </Position>
            <AltitudeMeters>202.600006103515625</AltitudeMeters>
            <DistanceMeters>163.57468223477</DistanceMeters>
          </Trackpoint>
          <Trackpoint>
            <Time>2021-10-20T05:51:43.000Z</Time>
            <Position>
              <LatitudeDegrees>39.026385582983493804931640625</LatitudeDegrees>
              <LongitudeDegrees>-6.8941597826778888702392578125</LongitudeDegrees>
            </Position>
            <AltitudeMeters>202.600006103515625</AltitudeMeters>
            <DistanceMeters>169.64003724768</DistanceMeters>
          </Trackpoint>
          <Trackpoint>
            <Time>2021-10-20T05:51:45.000Z</Time>
            <Position>
              <LatitudeDegrees>39.02642690576612949371337890625</LatitudeDegrees>
              <LongitudeDegrees>-6.89414327032864093780517578125</LongitudeDegrees>
            </Position>
            <AltitudeMeters>202.600006103515625</AltitudeMeters>
            <DistanceMeters>174.45555760462</DistanceMeters>
          </Trackpoint>
          <Trackpoint>
            <Time>2021-10-20T05:51:47.000Z</Time>
            <Position>
              <LatitudeDegrees>39.02648071758449077606201171875</LatitudeDegrees>
              <LongitudeDegrees>-6.89413455314934253692626953125</LongitudeDegrees>
            </Position>
            <AltitudeMeters>202.399993896484375</AltitudeMeters>
            <DistanceMeters>180.49255922196</DistanceMeters>
          </Trackpoint>
          <Trackpoint>
            <Time>2021-10-20T05:51:49.000Z</Time>
            <Position>
              <LatitudeDegrees>39.0265262313187122344970703125</LatitudeDegrees>
              <LongitudeDegrees>-6.89412382431328296661376953125</LongitudeDegrees>
            </Position>
            <AltitudeMeters>202.399993896484375</AltitudeMeters>
            <DistanceMeters>185.64244606692</DistanceMeters>
          </Trackpoint>
          <Trackpoint>
            <Time>2021-10-20T05:51:50.000Z</Time>
            <Position>
              <LatitudeDegrees>39.02654726989567279815673828125</LatitudeDegrees>
              <LongitudeDegrees>-6.8941182084381580352783203125</LongitudeDegrees>
            </Position>
            <AltitudeMeters>202.399993896484375</AltitudeMeters>
            <DistanceMeters>188.03515759685</DistanceMeters>
          </Trackpoint>
          <Trackpoint>
            <Time>2021-10-20T05:51:51.000Z</Time>
            <Position>
              <LatitudeDegrees>39.02657057158648967742919921875</LatitudeDegrees>
              <LongitudeDegrees>-6.89411410130560398101806640625</LongitudeDegrees>
            </Position>
            <AltitudeMeters>202.1999969482421875</AltitudeMeters>
            <DistanceMeters>190.65313926619</DistanceMeters>
          </Trackpoint>
          <Trackpoint>
            <Time>2021-10-20T05:51:52.000Z</Time>
            <Position>
              <LatitudeDegrees>39.02659647166728973388671875</LatitudeDegrees>
              <LongitudeDegrees>-6.89411276020109653472900390625</LongitudeDegrees>
            </Position>
            <AltitudeMeters>202.1999969482421875</AltitudeMeters>
            <DistanceMeters>193.53700826544</DistanceMeters>
          </Trackpoint>
          <Trackpoint>
            <Time>2021-10-20T05:51:55.000Z</Time>
            <Position>
              <LatitudeDegrees>39.02666713111102581024169921875</LatitudeDegrees>
              <LongitudeDegrees>-6.8941126763820648193359375</LongitudeDegrees>
            </Position>
            <AltitudeMeters>202</AltitudeMeters>
            <DistanceMeters>201.40186831767</DistanceMeters>
          </Trackpoint>
          <Trackpoint>
            <Time>2021-10-20T05:52:24.000Z</Time>
            <Position>
              <LatitudeDegrees>39.02689008973538875579833984375</LatitudeDegrees>
              <LongitudeDegrees>-6.894114352762699127197265625</LongitudeDegrees>
            </Position>
            <AltitudeMeters>200.1999969482421875</AltitudeMeters>
            <DistanceMeters>226.21803610003</DistanceMeters>
          </Trackpoint>
          <Trackpoint>
            <Time>2021-10-20T05:52:25.000Z</Time>
            <Position>
              <LatitudeDegrees>39.0269107930362224578857421875</LatitudeDegrees>
              <LongitudeDegrees>-6.89410991035401821136474609375</LongitudeDegrees>
            </Position>
            <AltitudeMeters>200</AltitudeMeters>
            <DistanceMeters>228.55345173159</DistanceMeters>
          </Trackpoint>
          <Trackpoint>
            <Time>2021-10-20T05:52:31.000Z</Time>
            <Position>
              <LatitudeDegrees>39.0270435623824596405029296875</LatitudeDegrees>
              <LongitudeDegrees>-6.8940223194658756256103515625</LongitudeDegrees>
            </Position>
            <AltitudeMeters>198.600006103515625</AltitudeMeters>
            <DistanceMeters>245.15867332651</DistanceMeters>
          </Trackpoint>
          <Trackpoint>
            <Time>2021-10-20T05:52:38.000Z</Time>
            <Position>
              <LatitudeDegrees>39.0270556323230266571044921875</LatitudeDegrees>
              <LongitudeDegrees>-6.8937876261770725250244140625</LongitudeDegrees>
            </Position>
            <AltitudeMeters>199.1999969482421875</AltitudeMeters>
            <DistanceMeters>265.49572230826</DistanceMeters>
          </Trackpoint>
          <Trackpoint>
            <Time>2021-10-20T05:52:42.000Z</Time>
            <Position>
              <LatitudeDegrees>39.02705848217010498046875</LatitudeDegrees>
              <LongitudeDegrees>-6.89364789985120296478271484375</LongitudeDegrees>
            </Position>
            <AltitudeMeters>199.399993896484375</AltitudeMeters>
            <DistanceMeters>277.58168592551</DistanceMeters>
          </Trackpoint>
          <Trackpoint>
            <Time>2021-10-20T05:52:46.000Z</Time>
            <Position>
              <LatitudeDegrees>39.02706292457878589630126953125</LatitudeDegrees>
              <LongitudeDegrees>-6.8934999592602252960205078125</LongitudeDegrees>
            </Position>
            <AltitudeMeters>199.8000030517578125</AltitudeMeters>
            <DistanceMeters>290.38281076782</DistanceMeters>
          </Trackpoint>
          <Trackpoint>
            <Time>2021-10-20T05:52:54.000Z</Time>
            <Position>
              <LatitudeDegrees>39.027096368372440338134765625</LatitudeDegrees>
              <LongitudeDegrees>-6.8932449817657470703125</LongitudeDegrees>
            </Position>
            <AltitudeMeters>200.8000030517578125</AltitudeMeters>
            <DistanceMeters>312.74136689155</DistanceMeters>
          </Trackpoint>
          <Trackpoint>
            <Time>2021-10-20T05:53:01.000Z</Time>
            <Position>
              <LatitudeDegrees>39.02710801921784877777099609375</LatitudeDegrees>
              <LongitudeDegrees>-6.892984807491302490234375</LongitudeDegrees>
            </Position>
            <AltitudeMeters>202.1999969482421875</AltitudeMeters>
            <DistanceMeters>335.27432293852</DistanceMeters>
          </Trackpoint>
          <Trackpoint>
            <Time>2021-10-20T05:53:03.000Z</Time>
            <Position>
              <LatitudeDegrees>39.02711279690265655517578125</LatitudeDegrees>
              <LongitudeDegrees>-6.89290895126760005950927734375</LongitudeDegrees>
            </Position>
            <AltitudeMeters>202.8000030517578125</AltitudeMeters>
            <DistanceMeters>341.8545369585</DistanceMeters>
          </Trackpoint>
          <Trackpoint>
            <Time>2021-10-20T05:53:09.000Z</Time>
            <Position>
              <LatitudeDegrees>39.02712754905223846435546875</LatitudeDegrees>
              <LongitudeDegrees>-6.89269789494574069976806640625</LongitudeDegrees>
            </Position>
            <AltitudeMeters>204</AltitudeMeters>
            <DistanceMeters>360.17720548777</DistanceMeters>
          </Trackpoint>
          <Trackpoint>
            <Time>2021-10-20T05:53:16.000Z</Time>
            <Position>
              <LatitudeDegrees>39.02714037336409091949462890625</LatitudeDegrees>
              <LongitudeDegrees>-6.89247678034007549285888671875</LongitudeDegrees>
            </Position>
            <AltitudeMeters>205.1999969482421875</AltitudeMeters>
            <DistanceMeters>379.34906589763</DistanceMeters>
          </Trackpoint>
          <Trackpoint>
            <Time>2021-10-20T05:53:18.000Z</Time>
            <Position>
              <LatitudeDegrees>39.02714590542018413543701171875</LatitudeDegrees>
              <LongitudeDegrees>-6.892419196665287017822265625</LongitudeDegrees>
            </Position>
            <AltitudeMeters>205.1999969482421875</AltitudeMeters>
            <DistanceMeters>384.36662039417</DistanceMeters>
          </Trackpoint>
          <Trackpoint>
            <Time>2021-10-20T05:53:20.000Z</Time>
            <Position>
              <LatitudeDegrees>39.02715277858078479766845703125</LatitudeDegrees>
              <LongitudeDegrees>-6.89235893078148365020751953125</LongitudeDegrees>
            </Position>
            <AltitudeMeters>205.399993896484375</AltitudeMeters>
            <DistanceMeters>389.63353550985</DistanceMeters>
          </Trackpoint>
          <Trackpoint>
            <Time>2021-10-20T05:53:28.000Z</Time>
            <Position>
              <LatitudeDegrees>39.027154035866260528564453125</LatitudeDegrees>
              <LongitudeDegrees>-6.8920988403260707855224609375</LongitudeDegrees>
            </Position>
            <AltitudeMeters>205.600006103515625</AltitudeMeters>
            <DistanceMeters>412.12256664669</DistanceMeters>
          </Trackpoint>
          <Trackpoint>
            <Time>2021-10-20T05:53:36.000Z</Time>
            <Position>
              <LatitudeDegrees>39.02720089070498943328857421875</LatitudeDegrees>
              <LongitudeDegrees>-6.89187227748334407806396484375</LongitudeDegrees>
            </Position>
            <AltitudeMeters>205.1999969482421875</AltitudeMeters>
            <DistanceMeters>432.39468491205</DistanceMeters>
          </Trackpoint>
          <Trackpoint>
            <Time>2021-10-20T05:53:44.000Z</Time>
            <Position>
              <LatitudeDegrees>39.0273329056799411773681640625</LatitudeDegrees>
              <LongitudeDegrees>-6.89167899079620838165283203125</LongitudeDegrees>
            </Position>
            <AltitudeMeters>204</AltitudeMeters>
            <DistanceMeters>454.64798561525</DistanceMeters>
          </Trackpoint>
          <Trackpoint>
            <Time>2021-10-20T05:53:52.000Z</Time>
            <Position>
              <LatitudeDegrees>39.02745301835238933563232421875</LatitudeDegrees>
              <LongitudeDegrees>-6.89147162251174449920654296875</LongitudeDegrees>
            </Position>
            <AltitudeMeters>203</AltitudeMeters>
            <DistanceMeters>477.0134065712</DistanceMeters>
          </Trackpoint>
          <Trackpoint>
            <Time>2021-10-20T05:53:55.000Z</Time>
            <Position>
              <LatitudeDegrees>39.02749593369662761688232421875</LatitudeDegrees>
              <LongitudeDegrees>-6.8914024718105792999267578125</LongitudeDegrees>
            </Position>
            <AltitudeMeters>203</AltitudeMeters>
            <DistanceMeters>484.6664501367</DistanceMeters>
          </Trackpoint>
          <Trackpoint>
            <Time>2021-10-20T05:53:58.000Z</Time>
            <Position>
              <LatitudeDegrees>39.0275427885353565216064453125</LatitudeDegrees>
              <LongitudeDegrees>-6.89133265055716037750244140625</LongitudeDegrees>
            </Position>
            <AltitudeMeters>203</AltitudeMeters>
            <DistanceMeters>492.6441677788</DistanceMeters>
          </Trackpoint>
          <Trackpoint>
            <Time>2021-10-20T05:54:00.000Z</Time>
            <Position>
              <LatitudeDegrees>39.02756952680647373199462890625</LatitudeDegrees>
              <LongitudeDegrees>-6.89127850346267223358154296875</LongitudeDegrees>
            </Position>
            <AltitudeMeters>203</AltitudeMeters>
            <DistanceMeters>498.19083077961</DistanceMeters>
          </Trackpoint>
          <Trackpoint>
            <Time>2021-10-20T05:54:05.000Z</Time>
            <Position>
              <LatitudeDegrees>39.0275806747376918792724609375</LatitudeDegrees>
              <LongitudeDegrees>-6.89110818319022655487060546875</LongitudeDegrees>
            </Position>
            <AltitudeMeters>203</AltitudeMeters>
            <DistanceMeters>512.96954719715</DistanceMeters>
          </Trackpoint>
          <Trackpoint>
            <Time>2021-10-20T05:54:10.000Z</Time>
            <Position>
              <LatitudeDegrees>39.02757321484386920928955078125</LatitudeDegrees>
              <LongitudeDegrees>-6.89092956483364105224609375</LongitudeDegrees>
            </Position>
            <AltitudeMeters>203.399993896484375</AltitudeMeters>
            <DistanceMeters>528.43585655007</DistanceMeters>
          </Trackpoint>
          <Trackpoint>
            <Time>2021-10-20T05:54:15.000Z</Time>
            <Position>
              <LatitudeDegrees>39.0275659225881099700927734375</LatitudeDegrees>
              <LongitudeDegrees>-6.89075396396219730377197265625</LongitudeDegrees>
            </Position>
            <AltitudeMeters>204</AltitudeMeters>
            <DistanceMeters>543.64072475464</DistanceMeters>
          </Trackpoint>
          <Trackpoint>
            <Time>2021-10-20T05:54:22.000Z</Time>
            <Position>
              <LatitudeDegrees>39.027561731636524200439453125</LatitudeDegrees>
              <LongitudeDegrees>-6.89052195288240909576416015625</LongitudeDegrees>
            </Position>
            <AltitudeMeters>204.600006103515625</AltitudeMeters>
            <DistanceMeters>563.70689301458</DistanceMeters>
          </Trackpoint>
          <Trackpoint>
            <Time>2021-10-20T05:54:30.000Z</Time>
            <Position>
              <LatitudeDegrees>39.0275612287223339080810546875</LatitudeDegrees>
              <LongitudeDegrees>-6.89025993458926677703857421875</LongitudeDegrees>
            </Position>
            <AltitudeMeters>204.600006103515625</AltitudeMeters>
            <DistanceMeters>586.36234589187</DistanceMeters>
          </Trackpoint>
          <Trackpoint>
            <Time>2021-10-20T05:54:38.000Z</Time>
            <Position>
              <LatitudeDegrees>39.02754840441048145294189453125</LatitudeDegrees>
              <LongitudeDegrees>-6.890004537999629974365234375</LongitudeDegrees>
            </Position>
            <AltitudeMeters>204.399993896484375</AltitudeMeters>
            <DistanceMeters>608.49112772466</DistanceMeters>
          </Trackpoint>
          <Trackpoint>
            <Time>2021-10-20T05:54:46.000Z</Time>
            <Position>
              <LatitudeDegrees>39.02755226008594036102294921875</LatitudeDegrees>
              <LongitudeDegrees>-6.88974310643970966339111328125</LongitudeDegrees>
            </Position>
            <AltitudeMeters>204.600006103515625</AltitudeMeters>
            <DistanceMeters>631.09989830572</DistanceMeters>
          </Trackpoint>
          <Trackpoint>
            <Time>2021-10-20T05:54:54.000Z</Time>
            <Position>
              <LatitudeDegrees>39.027560055255889892578125</LatitudeDegrees>
              <LongitudeDegrees>-6.8894867040216922760009765625</LongitudeDegrees>
            </Position>
            <AltitudeMeters>205</AltitudeMeters>
            <DistanceMeters>653.28655030897</DistanceMeters>
          </Trackpoint>
          <Trackpoint>
            <Time>2021-10-20T05:55:02.000Z</Time>
            <Position>
              <LatitudeDegrees>39.027532897889614105224609375</LatitudeDegrees>
              <LongitudeDegrees>-6.88924622721970081329345703125</LongitudeDegrees>
            </Position>
            <AltitudeMeters>205.399993896484375</AltitudeMeters>
            <DistanceMeters>674.29777129369</DistanceMeters>
          </Trackpoint>
          <Trackpoint>
            <Time>2021-10-20T05:55:06.000Z</Time>
            <Position>
              <LatitudeDegrees>39.0275184810161590576171875</LatitudeDegrees>
              <LongitudeDegrees>-6.88911848701536655426025390625</LongitudeDegrees>
            </Position>
            <AltitudeMeters>205.600006103515625</AltitudeMeters>
            <DistanceMeters>685.45926468037</DistanceMeters>
          </Trackpoint>
          <Trackpoint>
            <Time>2021-10-20T05:55:13.000Z</Time>
            <Position>
              <LatitudeDegrees>39.027524180710315704345703125</LatitudeDegrees>
              <LongitudeDegrees>-6.888886727392673492431640625</LongitudeDegrees>
            </Position>
            <AltitudeMeters>207.600006103515625</AltitudeMeters>
            <DistanceMeters>705.50832507796</DistanceMeters>
          </Trackpoint>
          <Trackpoint>
            <Time>2021-10-20T05:55:18.000Z</Time>
            <Position>
              <LatitudeDegrees>39.02751102112233638763427734375</LatitudeDegrees>
              <LongitudeDegrees>-6.88873015344142913818359375</LongitudeDegrees>
            </Position>
            <AltitudeMeters>208</AltitudeMeters>
            <DistanceMeters>719.12535815056</DistanceMeters>
          </Trackpoint>
          <Trackpoint>
            <Time>2021-10-20T05:55:26.000Z</Time>
            <Position>
              <LatitudeDegrees>39.027502052485942840576171875</LatitudeDegrees>
              <LongitudeDegrees>-6.88847358338534832000732421875</LongitudeDegrees>
            </Position>
            <AltitudeMeters>208.8000030517578125</AltitudeMeters>
            <DistanceMeters>741.33194443943</DistanceMeters>
          </Trackpoint>
          <Trackpoint>
            <Time>2021-10-20T05:55:34.000Z</Time>
            <Position>
              <LatitudeDegrees>39.0274901501834392547607421875</LatitudeDegrees>
              <LongitudeDegrees>-6.8882391415536403656005859375</LongitudeDegrees>
            </Position>
            <AltitudeMeters>209.8000030517578125</AltitudeMeters>
            <DistanceMeters>761.64589120849</DistanceMeters>
          </Trackpoint>
          <Trackpoint>
            <Time>2021-10-20T05:55:42.000Z</Time>
            <Position>
              <LatitudeDegrees>39.02748151682317256927490234375</LatitudeDegrees>
              <LongitudeDegrees>-6.8879833258688449859619140625</LongitudeDegrees>
            </Position>
            <AltitudeMeters>211.1999969482421875</AltitudeMeters>
            <DistanceMeters>783.78568817077</DistanceMeters>
          </Trackpoint>
          <Trackpoint>
            <Time>2021-10-20T05:55:48.000Z</Time>
            <Position>
              <LatitudeDegrees>39.02748964726924896240234375</LatitudeDegrees>
              <LongitudeDegrees>-6.887794397771358489990234375</LongitudeDegrees>
            </Position>
            <AltitudeMeters>212.600006103515625</AltitudeMeters>
            <DistanceMeters>800.1462971433</DistanceMeters>
          </Trackpoint>
          <Trackpoint>
            <Time>2021-10-20T05:55:56.000Z</Time>
            <Position>
              <LatitudeDegrees>39.027494676411151885986328125</LatitudeDegrees>
              <LongitudeDegrees>-6.88755333423614501953125</LongitudeDegrees>
            </Position>
            <AltitudeMeters>214.399993896484375</AltitudeMeters>
            <DistanceMeters>820.99724581406</DistanceMeters>
          </Trackpoint>
          <Trackpoint>
            <Time>2021-10-20T05:55:59.000Z</Time>
            <Position>
              <LatitudeDegrees>39.02748989872634410858154296875</LatitudeDegrees>
              <LongitudeDegrees>-6.887471862137317657470703125</LongitudeDegrees>
            </Position>
            <AltitudeMeters>215</AltitudeMeters>
            <DistanceMeters>828.06125334728</DistanceMeters>
          </Trackpoint>
          <Trackpoint>
            <Time>2021-10-20T05:56:08.000Z</Time>
            <Position>
              <LatitudeDegrees>39.02744061313569545745849609375</LatitudeDegrees>
              <LongitudeDegrees>-6.88724982552230358123779296875</LongitudeDegrees>
            </Position>
            <AltitudeMeters>216.399993896484375</AltitudeMeters>
            <DistanceMeters>848.02772060736</DistanceMeters>
          </Trackpoint>
          <Trackpoint>
            <Time>2021-10-20T05:56:16.000Z</Time>
            <Position>
              <LatitudeDegrees>39.02739551849663257598876953125</LatitudeDegrees>
              <LongitudeDegrees>-6.8870155513286590576171875</LongitudeDegrees>
            </Position>
            <AltitudeMeters>218</AltitudeMeters>
            <DistanceMeters>868.89685060581</DistanceMeters>
          </Trackpoint>
          <Trackpoint>
            <Time>2021-10-20T05:56:25.000Z</Time>
            <Position>
              <LatitudeDegrees>39.0273791737854480743408203125</LatitudeDegrees>
              <LongitudeDegrees>-6.88677507452666759490966796875</LongitudeDegrees>
            </Position>
            <AltitudeMeters>219.8000030517578125</AltitudeMeters>
            <DistanceMeters>889.7690092858</DistanceMeters>
          </Trackpoint>
          <Trackpoint>
            <Time>2021-10-20T05:56:34.000Z</Time>
            <Position>
              <LatitudeDegrees>39.02741345576941967010498046875</LatitudeDegrees>
              <LongitudeDegrees>-6.88653568737208843231201171875</LongitudeDegrees>
            </Position>
            <AltitudeMeters>220</AltitudeMeters>
            <DistanceMeters>910.81630032554</DistanceMeters>
          </Trackpoint>
          <Trackpoint>
            <Time>2021-10-20T05:56:43.000Z</Time>
            <Position>
              <LatitudeDegrees>39.02746961452066898345947265625</LatitudeDegrees>
              <LongitudeDegrees>-6.8862965516746044158935546875</LongitudeDegrees>
            </Position>
            <AltitudeMeters>219.1999969482421875</AltitudeMeters>
            <DistanceMeters>932.41727507235</DistanceMeters>
          </Trackpoint>
          <Trackpoint>
            <Time>2021-10-20T05:56:46.000Z</Time>
            <Position>
              <LatitudeDegrees>39.0274928323924541473388671875</LatitudeDegrees>
              <LongitudeDegrees>-6.88622958026826381683349609375</LongitudeDegrees>
            </Position>
            <AltitudeMeters>218.8000030517578125</AltitudeMeters>
            <DistanceMeters>938.75777192422</DistanceMeters>
          </Trackpoint>
          <Trackpoint>
            <Time>2021-10-20T05:56:48.000Z</Time>
            <Position>
              <LatitudeDegrees>39.0274707041680812835693359375</LatitudeDegrees>
              <LongitudeDegrees>-6.88619739376008510589599609375</LongitudeDegrees>
            </Position>
            <AltitudeMeters>219</AltitudeMeters>
            <DistanceMeters>942.47476223349</DistanceMeters>
          </Trackpoint>
          <Trackpoint>
            <Time>2021-10-20T05:56:54.000Z</Time>
            <Position>
              <LatitudeDegrees>39.02735327370464801788330078125</LatitudeDegrees>
              <LongitudeDegrees>-6.8860950507223606109619140625</LongitudeDegrees>
            </Position>
            <AltitudeMeters>220.1999969482421875</AltitudeMeters>
            <DistanceMeters>958.25892547038</DistanceMeters>
          </Trackpoint>
          <Trackpoint>
            <Time>2021-10-20T05:56:55.000Z</Time>
            <Position>
              <LatitudeDegrees>39.02733785100281238555908203125</LatitudeDegrees>
              <LongitudeDegrees>-6.88606697134673595428466796875</LongitudeDegrees>
            </Position>
            <AltitudeMeters>220.1999969482421875</AltitudeMeters>
            <DistanceMeters>961.23373217252</DistanceMeters>
          </Trackpoint>
          <Trackpoint>
            <Time>2021-10-20T05:57:01.000Z</Time>
            <Position>
              <LatitudeDegrees>39.0272785909473896026611328125</LatitudeDegrees>
              <LongitudeDegrees>-6.88589732162654399871826171875</LongitudeDegrees>
            </Position>
            <AltitudeMeters>220</AltitudeMeters>
            <DistanceMeters>977.31684566889</DistanceMeters>
          </Trackpoint>
          <Trackpoint>
            <Time>2021-10-20T05:57:07.000Z</Time>
            <Position>
              <LatitudeDegrees>39.0272008068859577178955078125</LatitudeDegrees>
              <LongitudeDegrees>-6.88572079874575138092041015625</LongitudeDegrees>
            </Position>
            <AltitudeMeters>219.600006103515625</AltitudeMeters>
            <DistanceMeters>994.8641402349</DistanceMeters>
          </Trackpoint>
          <Trackpoint>
            <Time>2021-10-20T05:57:14.000Z</Time>
            <Position>
              <LatitudeDegrees>39.02709309943020343780517578125</LatitudeDegrees>
              <LongitudeDegrees>-6.88551686704158782958984375</LongitudeDegrees>
            </Position>
            <AltitudeMeters>219</AltitudeMeters>
            <DistanceMeters>1016.1861530069</DistanceMeters>
          </Trackpoint>
          <Trackpoint>
            <Time>2021-10-20T05:57:16.000Z</Time>
            <Position>
              <LatitudeDegrees>39.02706258930265903472900390625</LatitudeDegrees>
              <LongitudeDegrees>-6.8854660727083683013916015625</LongitudeDegrees>
            </Position>
            <AltitudeMeters>219.1999969482421875</AltitudeMeters>
            <DistanceMeters>1021.7385111527</DistanceMeters>
          </Trackpoint>
          <Trackpoint>
            <Time>2021-10-20T05:57:20.000Z</Time>
            <Position>
              <LatitudeDegrees>39.02700341306626796722412109375</LatitudeDegrees>
              <LongitudeDegrees>-6.88536205329000949859619140625</LongitudeDegrees>
            </Position>
            <AltitudeMeters>219.600006103515625</AltitudeMeters>
            <DistanceMeters>1032.8862424027</DistanceMeters>
          </Trackpoint>
          <Trackpoint>
            <Time>2021-10-20T05:57:27.000Z</Time>
            <Position>
              <LatitudeDegrees>39.02689260430634021759033203125</LatitudeDegrees>
              <LongitudeDegrees>-6.88517379574477672576904296875</LongitudeDegrees>
            </Position>
            <AltitudeMeters>221</AltitudeMeters>
            <DistanceMeters>1053.3083654716</DistanceMeters>
          </Trackpoint>
          <Trackpoint>
            <Time>2021-10-20T05:57:34.000Z</Time>
            <Position>
              <LatitudeDegrees>39.02678363956511020660400390625</LatitudeDegrees>
              <LongitudeDegrees>-6.88498335890471935272216796875</LongitudeDegrees>
            </Position>
            <AltitudeMeters>221.600006103515625</AltitudeMeters>
            <DistanceMeters>1073.7589887017</DistanceMeters>
          </Trackpoint>
          <Trackpoint>
            <Time>2021-10-20T05:57:42.000Z</Time>
            <Position>
              <LatitudeDegrees>39.026665873825550079345703125</LatitudeDegrees>
              <LongitudeDegrees>-6.8847757391631603240966796875</LongitudeDegrees>
            </Position>
            <AltitudeMeters>222.399993896484375</AltitudeMeters>
            <DistanceMeters>1095.9871164391</DistanceMeters>
          </Trackpoint>
          <Trackpoint>
            <Time>2021-10-20T05:57:50.000Z</Time>
            <Position>
              <LatitudeDegrees>39.02657233178615570068359375</LatitudeDegrees>
              <LongitudeDegrees>-6.8845651857554912567138671875</LongitudeDegrees>
            </Position>
            <AltitudeMeters>223</AltitudeMeters>
            <DistanceMeters>1116.9594068107</DistanceMeters>
          </Trackpoint>
          <Trackpoint>
            <Time>2021-10-20T05:57:58.000Z</Time>
            <Position>
              <LatitudeDegrees>39.02650536037981510162353515625</LatitudeDegrees>
              <LongitudeDegrees>-6.88433493487536907196044921875</LongitudeDegrees>
            </Position>
            <AltitudeMeters>222.8000030517578125</AltitudeMeters>
            <DistanceMeters>1138.2177982295</DistanceMeters>
          </Trackpoint>
          <Trackpoint>
            <Time>2021-10-20T05:58:07.000Z</Time>
            <Position>
              <LatitudeDegrees>39.02642874978482723236083984375</LatitudeDegrees>
              <LongitudeDegrees>-6.88410376198589801788330078125</LongitudeDegrees>
            </Position>
            <AltitudeMeters>223.1999969482421875</AltitudeMeters>
            <DistanceMeters>1159.9488101184</DistanceMeters>
          </Trackpoint>
          <Trackpoint>
            <Time>2021-10-20T05:58:12.000Z</Time>
            <Position>
              <LatitudeDegrees>39.0264095552265644073486328125</LatitudeDegrees>
              <LongitudeDegrees>-6.88396965153515338897705078125</LongitudeDegrees>
            </Position>
            <AltitudeMeters>223.8000030517578125</AltitudeMeters>
            <DistanceMeters>1171.7397836546</DistanceMeters>
          </Trackpoint>
          <Trackpoint>
            <Time>2021-10-20T05:58:21.000Z</Time>
            <Position>
              <LatitudeDegrees>39.02639128267765045166015625</LatitudeDegrees>
              <LongitudeDegrees>-6.8837390653789043426513671875</LongitudeDegrees>
            </Position>
            <AltitudeMeters>225.8000030517578125</AltitudeMeters>
            <DistanceMeters>1191.78096052</DistanceMeters>
          </Trackpoint>
          <Trackpoint>
            <Time>2021-10-20T05:58:28.000Z</Time>
            <Position>
              <LatitudeDegrees>39.026350714266300201416015625</LatitudeDegrees>
              <LongitudeDegrees>-6.88356421887874603271484375</LongitudeDegrees>
            </Position>
            <AltitudeMeters>226.8000030517578125</AltitudeMeters>
            <DistanceMeters>1207.5588294321</DistanceMeters>
          </Trackpoint>
          <Trackpoint>
            <Time>2021-10-20T05:58:31.000Z</Time>
            <Position>
              <LatitudeDegrees>39.02633051387965679168701171875</LatitudeDegrees>
              <LongitudeDegrees>-6.88348987139761447906494140625</LongitudeDegrees>
            </Position>
            <AltitudeMeters>227.399993896484375</AltitudeMeters>
            <DistanceMeters>1214.3690036307</DistanceMeters>
          </Trackpoint>
          <Trackpoint>
            <Time>2021-10-20T05:58:32.000Z</Time>
            <Position>
              <LatitudeDegrees>39.02632280252873897552490234375</LatitudeDegrees>
              <LongitudeDegrees>-6.88346439041197299957275390625</LongitudeDegrees>
            </Position>
            <AltitudeMeters>227.600006103515625</AltitudeMeters>
            <DistanceMeters>1216.7332407844</DistanceMeters>
          </Trackpoint>
          <Trackpoint>
            <Time>2021-10-20T05:58:33.000Z</Time>
            <Position>
              <LatitudeDegrees>39.0263133309781551361083984375</LatitudeDegrees>
              <LongitudeDegrees>-6.88343815505504608154296875</LongitudeDegrees>
            </Position>
            <AltitudeMeters>227.8000030517578125</AltitudeMeters>
            <DistanceMeters>1219.233003353</DistanceMeters>
          </Trackpoint>
          <Trackpoint>
            <Time>2021-10-20T05:58:41.000Z</Time>
            <Position>
              <LatitudeDegrees>39.02621584944427013397216796875</LatitudeDegrees>
              <LongitudeDegrees>-6.883242018520832061767578125</LongitudeDegrees>
            </Position>
            <AltitudeMeters>231</AltitudeMeters>
            <DistanceMeters>1239.3656636656</DistanceMeters>
          </Trackpoint>
          <Trackpoint>
            <Time>2021-10-20T05:58:45.000Z</Time>
            <Position>
              <LatitudeDegrees>39.02617511339485645294189453125</LatitudeDegrees>
              <LongitudeDegrees>-6.88313498161733150482177734375</LongitudeDegrees>
            </Position>
            <AltitudeMeters>232.1999969482421875</AltitudeMeters>
            <DistanceMeters>1249.6715726082</DistanceMeters>
          </Trackpoint>
          <Trackpoint>
            <Time>2021-10-20T05:58:53.000Z</Time>
            <Position>
              <LatitudeDegrees>39.02610252611339092254638671875</LatitudeDegrees>
              <LongitudeDegrees>-6.8829256854951381683349609375</LongitudeDegrees>
            </Position>
            <AltitudeMeters>234.1999969482421875</AltitudeMeters>
            <DistanceMeters>1269.4900540083</DistanceMeters>
          </Trackpoint>
          <Trackpoint>
            <Time>2021-10-20T05:59:02.000Z</Time>
            <Position>
              <LatitudeDegrees>39.02605458162724971771240234375</LatitudeDegrees>
              <LongitudeDegrees>-6.88270146958529949188232421875</LongitudeDegrees>
            </Position>
            <AltitudeMeters>235</AltitudeMeters>
            <DistanceMeters>1289.5980301088</DistanceMeters>
          </Trackpoint>
          <Trackpoint>
            <Time>2021-10-20T05:59:11.000Z</Time>
            <Position>
              <LatitudeDegrees>39.02601803652942180633544921875</LatitudeDegrees>
              <LongitudeDegrees>-6.8824713863432407379150390625</LongitudeDegrees>
            </Position>
            <AltitudeMeters>235.1999969482421875</AltitudeMeters>
            <DistanceMeters>1309.9039738343</DistanceMeters>
          </Trackpoint>
          <Trackpoint>
            <Time>2021-10-20T05:59:21.000Z</Time>
            <Position>
              <LatitudeDegrees>39.026048295199871063232421875</LatitudeDegrees>
              <LongitudeDegrees>-6.882250271737575531005859375</LongitudeDegrees>
            </Position>
            <AltitudeMeters>235.600006103515625</AltitudeMeters>
            <DistanceMeters>1329.3168873279</DistanceMeters>
          </Trackpoint>
          <Trackpoint>
            <Time>2021-10-20T05:59:22.000Z</Time>
            <Position>
              <LatitudeDegrees>39.0260652266442775726318359375</LatitudeDegrees>
              <LongitudeDegrees>-6.882244236767292022705078125</LongitudeDegrees>
            </Position>
            <AltitudeMeters>235.600006103515625</AltitudeMeters>
            <DistanceMeters>1331.2689867771</DistanceMeters>
          </Trackpoint>
          <Trackpoint>
            <Time>2021-10-20T05:59:40.000Z</Time>
            <Position>
              <LatitudeDegrees>39.0261948108673095703125</LatitudeDegrees>
              <LongitudeDegrees>-6.882139630615711212158203125</LongitudeDegrees>
            </Position>
            <AltitudeMeters>236.600006103515625</AltitudeMeters>
            <DistanceMeters>1348.2933614659</DistanceMeters>
          </Trackpoint>
          <Trackpoint>
            <Time>2021-10-20T05:59:43.000Z</Time>
            <Position>
              <LatitudeDegrees>39.026195816695690155029296875</LatitudeDegrees>
              <LongitudeDegrees>-6.88208623789250850677490234375</LongitudeDegrees>
            </Position>
            <AltitudeMeters>236.600006103515625</AltitudeMeters>
            <DistanceMeters>1352.9107211534</DistanceMeters>
          </Trackpoint>
          <Trackpoint>
            <Time>2021-10-20T05:59:52.000Z</Time>
            <Position>
              <LatitudeDegrees>39.02635431848466396331787109375</LatitudeDegrees>
              <LongitudeDegrees>-6.881927736103534698486328125</LongitudeDegrees>
            </Position>
            <AltitudeMeters>237.8000030517578125</AltitudeMeters>
            <DistanceMeters>1375.2500849464</DistanceMeters>
          </Trackpoint>
          <Trackpoint>
            <Time>2021-10-20T05:59:53.000Z</Time>
            <Position>
              <LatitudeDegrees>39.02637460269033908843994140625</LatitudeDegrees>
              <LongitudeDegrees>-6.8819057755172252655029296875</LongitudeDegrees>
            </Position>
            <AltitudeMeters>238</AltitudeMeters>
            <DistanceMeters>1378.2020374814</DistanceMeters>
          </Trackpoint>
          <Trackpoint>
            <Time>2021-10-20T06:00:01.000Z</Time>
            <Position>
              <LatitudeDegrees>39.02653285302221775054931640625</LatitudeDegrees>
              <LongitudeDegrees>-6.881751380860805511474609375</LongitudeDegrees>
            </Position>
            <AltitudeMeters>239</AltitudeMeters>
            <DistanceMeters>1400.3030531822</DistanceMeters>
          </Trackpoint>
          <Trackpoint>
            <Time>2021-10-20T06:00:09.000Z</Time>
            <Position>
              <LatitudeDegrees>39.02669814415276050567626953125</LatitudeDegrees>
              <LongitudeDegrees>-6.8816197849810123443603515625</LongitudeDegrees>
            </Position>
            <AltitudeMeters>239.600006103515625</AltitudeMeters>
            <DistanceMeters>1421.9345233396</DistanceMeters>
          </Trackpoint>
          <Trackpoint>
            <Time>2021-10-20T06:00:17.000Z</Time>
            <Position>
              <LatitudeDegrees>39.02686335146427154541015625</LatitudeDegrees>
              <LongitudeDegrees>-6.881491877138614654541015625</LongitudeDegrees>
            </Position>
            <AltitudeMeters>240.399993896484375</AltitudeMeters>
            <DistanceMeters>1443.3922624517</DistanceMeters>
          </Trackpoint>
          <Trackpoint>
            <Time>2021-10-20T06:00:26.000Z</Time>
            <Position>
              <LatitudeDegrees>39.02696401812136173248291015625</LatitudeDegrees>
              <LongitudeDegrees>-6.88127118162810802459716796875</LongitudeDegrees>
            </Position>
            <AltitudeMeters>239.8000030517578125</AltitudeMeters>
            <DistanceMeters>1465.5210442845</DistanceMeters>
          </Trackpoint>
          <Trackpoint>
            <Time>2021-10-20T06:00:34.000Z</Time>
            <Position>
              <LatitudeDegrees>39.02700760401785373687744140625</LatitudeDegrees>
              <LongitudeDegrees>-6.8810407631099224090576171875</LongitudeDegrees>
            </Position>
            <AltitudeMeters>239</AltitudeMeters>
            <DistanceMeters>1486.0265674316</DistanceMeters>
          </Trackpoint>
          <Trackpoint>
            <Time>2021-10-20T06:00:43.000Z</Time>
            <Position>
              <LatitudeDegrees>39.027075581252574920654296875</LatitudeDegrees>
              <LongitudeDegrees>-6.8807993642985820770263671875</LongitudeDegrees>
            </Position>
            <AltitudeMeters>239</AltitudeMeters>
            <DistanceMeters>1508.2280701441</DistanceMeters>
          </Trackpoint>
          <Trackpoint>
            <Time>2021-10-20T06:00:51.000Z</Time>
            <Position>
              <LatitudeDegrees>39.02712511830031871795654296875</LatitudeDegrees>
              <LongitudeDegrees>-6.880571879446506500244140625</LongitudeDegrees>
            </Position>
            <AltitudeMeters>239.600006103515625</AltitudeMeters>
            <DistanceMeters>1528.6554985793</DistanceMeters>
          </Trackpoint>
          <Trackpoint>
            <Time>2021-10-20T06:00:59.000Z</Time>
            <Position>
              <LatitudeDegrees>39.0271652676165103912353515625</LatitudeDegrees>
              <LongitudeDegrees>-6.880324780941009521484375</LongitudeDegrees>
            </Position>
            <AltitudeMeters>241.1999969482421875</AltitudeMeters>
            <DistanceMeters>1550.4831162536</DistanceMeters>
          </Trackpoint>
          <Trackpoint>
            <Time>2021-10-20T06:01:07.000Z</Time>
            <Position>
              <LatitudeDegrees>39.027186892926692962646484375</LatitudeDegrees>
              <LongitudeDegrees>-6.88008447177708148956298828125</LongitudeDegrees>
            </Position>
            <AltitudeMeters>242</AltitudeMeters>
            <DistanceMeters>1571.4002208301</DistanceMeters>
          </Trackpoint>
          <Trackpoint>
            <Time>2021-10-20T06:01:14.000Z</Time>
            <Position>
              <LatitudeDegrees>39.02717691846191883087158203125</LatitudeDegrees>
              <LongitudeDegrees>-6.879827566444873809814453125</LongitudeDegrees>
            </Position>
            <AltitudeMeters>242.600006103515625</AltitudeMeters>
            <DistanceMeters>1593.6413446236</DistanceMeters>
          </Trackpoint>
          <Trackpoint>
            <Time>2021-10-20T06:01:20.000Z</Time>
            <Position>
              <LatitudeDegrees>39.02713584713637828826904296875</LatitudeDegrees>
              <LongitudeDegrees>-6.8795979022979736328125</LongitudeDegrees>
            </Position>
            <AltitudeMeters>242</AltitudeMeters>
            <DistanceMeters>1614.0187594548</DistanceMeters>
          </Trackpoint>
          <Trackpoint>
            <Time>2021-10-20T06:01:26.000Z</Time>
            <Position>
              <LatitudeDegrees>39.02708522044122219085693359375</LatitudeDegrees>
              <LongitudeDegrees>-6.87937251292169094085693359375</LongitudeDegrees>
            </Position>
            <AltitudeMeters>242</AltitudeMeters>
            <DistanceMeters>1634.3055720188</DistanceMeters>
          </Trackpoint>
          <Trackpoint>
            <Time>2021-10-20T06:01:33.000Z</Time>
            <Position>
              <LatitudeDegrees>39.02705521322786808013916015625</LatitudeDegrees>
              <LongitudeDegrees>-6.8791223131120204925537109375</LongitudeDegrees>
            </Position>
            <AltitudeMeters>241.399993896484375</AltitudeMeters>
            <DistanceMeters>1656.1953629348</DistanceMeters>
          </Trackpoint>
          <Trackpoint>
            <Time>2021-10-20T06:01:41.000Z</Time>
            <Position>
              <LatitudeDegrees>39.02702302671968936920166015625</LatitudeDegrees>
              <LongitudeDegrees>-6.87886842526495456695556640625</LongitudeDegrees>
            </Position>
            <AltitudeMeters>241.1999969482421875</AltitudeMeters>
            <DistanceMeters>1678.4385166763</DistanceMeters>
          </Trackpoint>
          <Trackpoint>
            <Time>2021-10-20T06:01:49.000Z</Time>
            <Position>
              <LatitudeDegrees>39.02699871920049190521240234375</LatitudeDegrees>
              <LongitudeDegrees>-6.878622584044933319091796875</LongitudeDegrees>
            </Position>
            <AltitudeMeters>241.399993896484375</AltitudeMeters>
            <DistanceMeters>1699.8669880911</DistanceMeters>
          </Trackpoint>
          <Trackpoint>
            <Time>2021-10-20T06:01:57.000Z</Time>
            <Position>
              <LatitudeDegrees>39.02702051214873790740966796875</LatitudeDegrees>
              <LongitudeDegrees>-6.878366768360137939453125</LongitudeDegrees>
            </Position>
            <AltitudeMeters>241.1999969482421875</AltitudeMeters>
            <DistanceMeters>1722.1186655913</DistanceMeters>
          </Trackpoint>
          <Trackpoint>
            <Time>2021-10-20T06:02:05.000Z</Time>
            <Position>
              <LatitudeDegrees>39.026980698108673095703125</LatitudeDegrees>
              <LongitudeDegrees>-6.8781238608062267303466796875</LongitudeDegrees>
            </Position>
            <AltitudeMeters>241.600006103515625</AltitudeMeters>
            <DistanceMeters>1743.5839783203</DistanceMeters>
          </Trackpoint>
          <Trackpoint>
            <Time>2021-10-20T06:02:12.000Z</Time>
            <Position>
              <LatitudeDegrees>39.02688883244991302490234375</LatitudeDegrees>
              <LongitudeDegrees>-6.87791355885565280914306640625</LongitudeDegrees>
            </Position>
            <AltitudeMeters>243.600006103515625</AltitudeMeters>
            <DistanceMeters>1764.4453182615</DistanceMeters>
          </Trackpoint>
          <Trackpoint>
            <Time>2021-10-20T06:02:19.000Z</Time>
            <Position>
              <LatitudeDegrees>39.02679755352437496185302734375</LatitudeDegrees>
              <LongitudeDegrees>-6.87771138735115528106689453125</LongitudeDegrees>
            </Position>
            <AltitudeMeters>244.600006103515625</AltitudeMeters>
            <DistanceMeters>1784.6639126888</DistanceMeters>
          </Trackpoint>
          <Trackpoint>
            <Time>2021-10-20T06:02:26.000Z</Time>
            <Position>
              <LatitudeDegrees>39.02669311501085758209228515625</LatitudeDegrees>
              <LongitudeDegrees>-6.8775123171508312225341796875</LongitudeDegrees>
            </Position>
            <AltitudeMeters>244.600006103515625</AltitudeMeters>
            <DistanceMeters>1805.434152746</DistanceMeters>
          </Trackpoint>
          <Trackpoint>
            <Time>2021-10-20T06:02:34.000Z</Time>
            <Position>
              <LatitudeDegrees>39.02660326100885868072509765625</LatitudeDegrees>
              <LongitudeDegrees>-6.87728139571845531463623046875</LongitudeDegrees>
            </Position>
            <AltitudeMeters>244.399993896484375</AltitudeMeters>
            <DistanceMeters>1827.7652284376</DistanceMeters>
          </Trackpoint>
          <Trackpoint>
            <Time>2021-10-20T06:02:41.000Z</Time>
            <Position>
              <LatitudeDegrees>39.02655129320919513702392578125</LatitudeDegrees>
              <LongitudeDegrees>-6.87710202299058437347412109375</LongitudeDegrees>
            </Position>
            <AltitudeMeters>244.1999969482421875</AltitudeMeters>
            <DistanceMeters>1844.3178892346</DistanceMeters>
          </Trackpoint>
          <Trackpoint>
            <Time>2021-10-20T06:02:47.000Z</Time>
            <Position>
              <LatitudeDegrees>39.026449955999851226806640625</LatitudeDegrees>
              <LongitudeDegrees>-6.8768669106066226959228515625</LongitudeDegrees>
            </Position>
            <AltitudeMeters>244.399993896484375</AltitudeMeters>
            <DistanceMeters>1867.5662482192</DistanceMeters>
          </Trackpoint>
          <Trackpoint>
            <Time>2021-10-20T06:02:52.000Z</Time>
            <Position>
              <LatitudeDegrees>39.02632146142423152923583984375</LatitudeDegrees>
              <LongitudeDegrees>-6.8766875378787517547607421875</LongitudeDegrees>
            </Position>
            <AltitudeMeters>243.600006103515625</AltitudeMeters>
            <DistanceMeters>1888.6630348885</DistanceMeters>
          </Trackpoint>
          <Trackpoint>
            <Time>2021-10-20T06:02:57.000Z</Time>
            <Position>
              <LatitudeDegrees>39.026211239397525787353515625</LatitudeDegrees>
              <LongitudeDegrees>-6.87650238163769245147705078125</LongitudeDegrees>
            </Position>
            <AltitudeMeters>242.8000030517578125</AltitudeMeters>
            <DistanceMeters>1908.8328887292</DistanceMeters>
          </Trackpoint>
          <Trackpoint>
            <Time>2021-10-20T06:03:03.000Z</Time>
            <Position>
              <LatitudeDegrees>39.026089198887348175048828125</LatitudeDegrees>
              <LongitudeDegrees>-6.8762855418026447296142578125</LongitudeDegrees>
            </Position>
            <AltitudeMeters>242.8000030517578125</AltitudeMeters>
            <DistanceMeters>1931.985499767</DistanceMeters>
          </Trackpoint>
          <Trackpoint>
            <Time>2021-10-20T06:03:06.000Z</Time>
            <Position>
              <LatitudeDegrees>39.02602826245129108428955078125</LatitudeDegrees>
              <LongitudeDegrees>-6.87618588097393512725830078125</LongitudeDegrees>
            </Position>
            <AltitudeMeters>242.1999969482421875</AltitudeMeters>
            <DistanceMeters>1942.9515167287</DistanceMeters>
          </Trackpoint>
          <Trackpoint>
            <Time>2021-10-20T06:03:12.000Z</Time>
            <Position>
              <LatitudeDegrees>39.02592449449002742767333984375</LatitudeDegrees>
              <LongitudeDegrees>-6.87596954405307769775390625</LongitudeDegrees>
            </Position>
            <AltitudeMeters>242.600006103515625</AltitudeMeters>
            <DistanceMeters>1964.9353674214</DistanceMeters>
          </Trackpoint>
          <Trackpoint>
            <Time>2021-10-20T06:03:18.000Z</Time>
            <Position>
              <LatitudeDegrees>39.02584888972342014312744140625</LatitudeDegrees>
              <LongitudeDegrees>-6.87574717216193675994873046875</LongitudeDegrees>
            </Position>
            <AltitudeMeters>242</AltitudeMeters>
            <DistanceMeters>1985.9235829027</DistanceMeters>
          </Trackpoint>
          <Trackpoint>
            <Time>2021-10-20T06:03:20.000Z</Time>
            <Position>
              <LatitudeDegrees>39.02582072652876377105712890625</LatitudeDegrees>
              <LongitudeDegrees>-6.875668130815029144287109375</LongitudeDegrees>
            </Position>
            <AltitudeMeters>241.8000030517578125</AltitudeMeters>
            <DistanceMeters>1993.442111917</DistanceMeters>
          </Trackpoint>
          <Trackpoint>
            <Time>2021-10-20T06:03:26.000Z</Time>
            <Position>
              <LatitudeDegrees>39.02574512176215648651123046875</LatitudeDegrees>
              <LongitudeDegrees>-6.8754510395228862762451171875</LongitudeDegrees>
            </Position>
            <AltitudeMeters>241.399993896484375</AltitudeMeters>
            <DistanceMeters>2014.0129264911</DistanceMeters>
          </Trackpoint>
          <Trackpoint>
            <Time>2021-10-20T06:03:32.000Z</Time>
            <Position>
              <LatitudeDegrees>39.0256665833294391632080078125</LatitudeDegrees>
              <LongitudeDegrees>-6.87522548250854015350341796875</LongitudeDegrees>
            </Position>
            <AltitudeMeters>242.8000030517578125</AltitudeMeters>
            <DistanceMeters>2035.3852774811</DistanceMeters>
          </Trackpoint>
          <Trackpoint>
            <Time>2021-10-20T06:03:38.000Z</Time>
            <Position>
              <LatitudeDegrees>39.02558217756450176239013671875</LatitudeDegrees>
              <LongitudeDegrees>-6.8749853409826755523681640625</LongitudeDegrees>
            </Position>
            <AltitudeMeters>244</AltitudeMeters>
            <DistanceMeters>2058.1758456412</DistanceMeters>
          </Trackpoint>
          <Trackpoint>
            <Time>2021-10-20T06:03:42.000Z</Time>
            <Position>
              <LatitudeDegrees>39.025512523949146270751953125</LatitudeDegrees>
              <LongitudeDegrees>-6.87483421526849269866943359375</LongitudeDegrees>
            </Position>
            <AltitudeMeters>244.1999969482421875</AltitudeMeters>
            <DistanceMeters>2073.3700199974</DistanceMeters>
          </Trackpoint>
          <Trackpoint>
            <Time>2021-10-20T06:03:45.000Z</Time>
            <Position>
              <LatitudeDegrees>39.02546399272978305816650390625</LatitudeDegrees>
              <LongitudeDegrees>-6.8747389130294322967529296875</LongitudeDegrees>
            </Position>
            <AltitudeMeters>244.1999969482421875</AltitudeMeters>
            <DistanceMeters>2083.2230576939</DistanceMeters>
          </Trackpoint>
          <Trackpoint>
            <Time>2021-10-20T06:03:55.000Z</Time>
            <Position>
              <LatitudeDegrees>39.02534496970474720001220703125</LatitudeDegrees>
              <LongitudeDegrees>-6.8745531700551509857177734375</LongitudeDegrees>
            </Position>
            <AltitudeMeters>243</AltitudeMeters>
            <DistanceMeters>2104.0423677043</DistanceMeters>
          </Trackpoint>
          <Trackpoint>
            <Time>2021-10-20T06:04:06.000Z</Time>
            <Position>
              <LatitudeDegrees>39.02522644959390163421630859375</LatitudeDegrees>
              <LongitudeDegrees>-6.8743566982448101043701171875</LongitudeDegrees>
            </Position>
            <AltitudeMeters>243.399993896484375</AltitudeMeters>
            <DistanceMeters>2125.5509670613</DistanceMeters>
          </Trackpoint>
          <Trackpoint>
            <Time>2021-10-20T06:04:11.000Z</Time>
            <Position>
              <LatitudeDegrees>39.02520214207470417022705078125</LatitudeDegrees>
              <LongitudeDegrees>-6.874251924455165863037109375</LongitudeDegrees>
            </Position>
            <AltitudeMeters>243.8000030517578125</AltitudeMeters>
            <DistanceMeters>2135.0060057601</DistanceMeters>
          </Trackpoint>
          <Trackpoint>
            <Time>2021-10-20T06:04:20.000Z</Time>
            <Position>
              <LatitudeDegrees>39.0250231884419918060302734375</LatitudeDegrees>
              <LongitudeDegrees>-6.874198615550994873046875</LongitudeDegrees>
            </Position>
            <AltitudeMeters>245.1999969482421875</AltitudeMeters>
            <DistanceMeters>2155.4502254391</DistanceMeters>
          </Trackpoint>
          <Trackpoint>
            <Time>2021-10-20T06:04:25.000Z</Time>
            <Position>
              <LatitudeDegrees>39.0249266289174556732177734375</LatitudeDegrees>
              <LongitudeDegrees>-6.87418193556368350982666015625</LongitudeDegrees>
            </Position>
            <AltitudeMeters>246</AltitudeMeters>
            <DistanceMeters>2166.2941018426</DistanceMeters>
          </Trackpoint>
          <Trackpoint>
            <Time>2021-10-20T06:04:28.000Z</Time>
            <Position>
              <LatitudeDegrees>39.0248642675578594207763671875</LatitudeDegrees>
              <LongitudeDegrees>-6.87415796332061290740966796875</LongitudeDegrees>
            </Position>
            <AltitudeMeters>246.8000030517578125</AltitudeMeters>
            <DistanceMeters>2173.5379802386</DistanceMeters>
          </Trackpoint>
          <Trackpoint>
            <Time>2021-10-20T06:04:36.000Z</Time>
            <Position>
              <LatitudeDegrees>39.02467592619359493255615234375</LatitudeDegrees>
              <LongitudeDegrees>-6.87414153479039669036865234375</LongitudeDegrees>
            </Position>
            <AltitudeMeters>244.600006103515625</AltitudeMeters>
            <DistanceMeters>2194.5485565524</DistanceMeters>
          </Trackpoint>
          <Trackpoint>
            <Time>2021-10-20T06:04:43.000Z</Time>
            <Position>
              <LatitudeDegrees>39.02449454180896282196044921875</LatitudeDegrees>
              <LongitudeDegrees>-6.874118149280548095703125</LongitudeDegrees>
            </Position>
            <AltitudeMeters>242.600006103515625</AltitudeMeters>
            <DistanceMeters>2214.8380396638</DistanceMeters>
          </Trackpoint>
          <Trackpoint>
            <Time>2021-10-20T06:04:49.000Z</Time>
            <Position>
              <LatitudeDegrees>39.024304188787937164306640625</LatitudeDegrees>
              <LongitudeDegrees>-6.874066852033138275146484375</LongitudeDegrees>
            </Position>
            <AltitudeMeters>240</AltitudeMeters>
            <DistanceMeters>2236.4841156713</DistanceMeters>
          </Trackpoint>
          <Trackpoint>
            <Time>2021-10-20T06:04:55.000Z</Time>
            <Position>
              <LatitudeDegrees>39.02410067617893218994140625</LatitudeDegrees>
              <LongitudeDegrees>-6.87403659336268901824951171875</LongitudeDegrees>
            </Position>
            <AltitudeMeters>239.1999969482421875</AltitudeMeters>
            <DistanceMeters>2259.2861713131</DistanceMeters>
          </Trackpoint>
          <Trackpoint>
            <Time>2021-10-20T06:05:01.000Z</Time>
            <Position>
              <LatitudeDegrees>39.02390889823436737060546875</LatitudeDegrees>
              <LongitudeDegrees>-6.87399543821811676025390625</LongitudeDegrees>
            </Position>
            <AltitudeMeters>239</AltitudeMeters>
            <DistanceMeters>2280.9259888777</DistanceMeters>
          </Trackpoint>
          <Trackpoint>
            <Time>2021-10-20T06:05:07.000Z</Time>
            <Position>
              <LatitudeDegrees>39.0237028710544109344482421875</LatitudeDegrees>
              <LongitudeDegrees>-6.87396593391895294189453125</LongitudeDegrees>
            </Position>
            <AltitudeMeters>239.1999969482421875</AltitudeMeters>
            <DistanceMeters>2303.998506437</DistanceMeters>
          </Trackpoint>
          <Trackpoint>
            <Time>2021-10-20T06:05:13.000Z</Time>
            <Position>
              <LatitudeDegrees>39.02350413613021373748779296875</LatitudeDegrees>
              <LongitudeDegrees>-6.873935759067535400390625</LongitudeDegrees>
            </Position>
            <AltitudeMeters>240.1999969482421875</AltitudeMeters>
            <DistanceMeters>2326.2714790631</DistanceMeters>
          </Trackpoint>
          <Trackpoint>
            <Time>2021-10-20T06:05:19.000Z</Time>
            <Position>
              <LatitudeDegrees>39.02330548502504825592041015625</LatitudeDegrees>
              <LongitudeDegrees>-6.8739104457199573516845703125</LongitudeDegrees>
            </Position>
            <AltitudeMeters>240.600006103515625</AltitudeMeters>
            <DistanceMeters>2348.4900579807</DistanceMeters>
          </Trackpoint>
          <Trackpoint>
            <Time>2021-10-20T06:05:25.000Z</Time>
            <Position>
              <LatitudeDegrees>39.02310364879667758941650390625</LatitudeDegrees>
              <LongitudeDegrees>-6.873922012746334075927734375</LongitudeDegrees>
            </Position>
            <AltitudeMeters>241.399993896484375</AltitudeMeters>
            <DistanceMeters>2370.9770813655</DistanceMeters>
          </Trackpoint>
          <Trackpoint>
            <Time>2021-10-20T06:05:30.000Z</Time>
            <Position>
              <LatitudeDegrees>39.0229327417910099029541015625</LatitudeDegrees>
              <LongitudeDegrees>-6.8739225156605243682861328125</LongitudeDegrees>
            </Position>
            <AltitudeMeters>242.1999969482421875</AltitudeMeters>
            <DistanceMeters>2389.9992840031</DistanceMeters>
          </Trackpoint>
          <Trackpoint>
            <Time>2021-10-20T06:05:36.000Z</Time>
            <Position>
              <LatitudeDegrees>39.0227372758090496063232421875</LatitudeDegrees>
              <LongitudeDegrees>-6.8738423846662044525146484375</LongitudeDegrees>
            </Position>
            <AltitudeMeters>243</AltitudeMeters>
            <DistanceMeters>2412.8318128438</DistanceMeters>
          </Trackpoint>
          <Trackpoint>
            <Time>2021-10-20T06:05:41.000Z</Time>
            <Position>
              <LatitudeDegrees>39.022550024092197418212890625</LatitudeDegrees>
              <LongitudeDegrees>-6.87382184900343418121337890625</LongitudeDegrees>
            </Position>
            <AltitudeMeters>243</AltitudeMeters>
            <DistanceMeters>2433.7489174203</DistanceMeters>
          </Trackpoint>
          <Trackpoint>
            <Time>2021-10-20T06:05:46.000Z</Time>
            <Position>
              <LatitudeDegrees>39.02237123809754848480224609375</LatitudeDegrees>
              <LongitudeDegrees>-6.8737386167049407958984375</LongitudeDegrees>
            </Position>
            <AltitudeMeters>243</AltitudeMeters>
            <DistanceMeters>2454.9095979535</DistanceMeters>
          </Trackpoint>
          <Trackpoint>
            <Time>2021-10-20T06:06:00.000Z</Time>
            <Position>
              <LatitudeDegrees>39.022196643054485321044921875</LatitudeDegrees>
              <LongitudeDegrees>-6.8736516125500202178955078125</LongitudeDegrees>
            </Position>
            <AltitudeMeters>242.8000030517578125</AltitudeMeters>
            <DistanceMeters>2475.7479835924</DistanceMeters>
          </Trackpoint>
          <Trackpoint>
            <Time>2021-10-20T06:06:12.000Z</Time>
            <Position>
              <LatitudeDegrees>39.0220100618898868560791015625</LatitudeDegrees>
              <LongitudeDegrees>-6.8735882453620433807373046875</LongitudeDegrees>
            </Position>
            <AltitudeMeters>241.1999969482421875</AltitudeMeters>
            <DistanceMeters>2497.2257028629</DistanceMeters>
          </Trackpoint>
          <Trackpoint>
            <Time>2021-10-20T06:06:22.000Z</Time>
            <Position>
              <LatitudeDegrees>39.02184535749256610870361328125</LatitudeDegrees>
              <LongitudeDegrees>-6.87348238192498683929443359375</LongitudeDegrees>
            </Position>
            <AltitudeMeters>239.399993896484375</AltitudeMeters>
            <DistanceMeters>2517.7162478615</DistanceMeters>
          </Trackpoint>
          <Trackpoint>
            <Time>2021-10-20T06:06:31.000Z</Time>
            <Position>
              <LatitudeDegrees>39.02169431559741497039794921875</LatitudeDegrees>
              <LongitudeDegrees>-6.8733381293714046478271484375</LongitudeDegrees>
            </Position>
            <AltitudeMeters>239.8000030517578125</AltitudeMeters>
            <DistanceMeters>2538.649750905</DistanceMeters>
          </Trackpoint>
          <Trackpoint>
            <Time>2021-10-20T06:06:39.000Z</Time>
            <Position>
              <LatitudeDegrees>39.02155123651027679443359375</LatitudeDegrees>
              <LongitudeDegrees>-6.87318918295204639434814453125</LongitudeDegrees>
            </Position>
            <AltitudeMeters>240.8000030517578125</AltitudeMeters>
            <DistanceMeters>2559.1312596679</DistanceMeters>
          </Trackpoint>
          <Trackpoint>
            <Time>2021-10-20T06:06:44.000Z</Time>
            <Position>
              <LatitudeDegrees>39.0214635618031024932861328125</LatitudeDegrees>
              <LongitudeDegrees>-6.87308256514370441436767578125</LongitudeDegrees>
            </Position>
            <AltitudeMeters>241.1999969482421875</AltitudeMeters>
            <DistanceMeters>2572.5559483298</DistanceMeters>
          </Trackpoint>
          <Trackpoint>
            <Time>2021-10-20T06:06:45.000Z</Time>
            <Position>
              <LatitudeDegrees>39.02144730091094970703125</LatitudeDegrees>
              <LongitudeDegrees>-6.87306093983352184295654296875</LongitudeDegrees>
            </Position>
            <AltitudeMeters>241.399993896484375</AltitudeMeters>
            <DistanceMeters>2575.1583620811</DistanceMeters>
          </Trackpoint>
          <Trackpoint>
            <Time>2021-10-20T06:06:46.000Z</Time>
            <Position>
              <LatitudeDegrees>39.0214296989142894744873046875</LatitudeDegrees>
              <LongitudeDegrees>-6.87304032035171985626220703125</LongitudeDegrees>
            </Position>
            <AltitudeMeters>241.399993896484375</AltitudeMeters>
            <DistanceMeters>2577.8089090951</DistanceMeters>
          </Trackpoint>
          <Trackpoint>
            <Time>2021-10-20T06:06:48.000Z</Time>
            <Position>
              <LatitudeDegrees>39.02139022015035152435302734375</LatitudeDegrees>
              <LongitudeDegrees>-6.8730045296251773834228515625</LongitudeDegrees>
            </Position>
            <AltitudeMeters>241.600006103515625</AltitudeMeters>
            <DistanceMeters>2583.183591834</DistanceMeters>
          </Trackpoint>
          <Trackpoint>
            <Time>2021-10-20T06:06:50.000Z</Time>
            <Position>
              <LatitudeDegrees>39.021342359483242034912109375</LatitudeDegrees>
              <LongitudeDegrees>-6.87294535338878631591796875</LongitudeDegrees>
            </Position>
            <AltitudeMeters>241.600006103515625</AltitudeMeters>
            <DistanceMeters>2590.5712695494</DistanceMeters>
          </Trackpoint>
          <Trackpoint>
            <Time>2021-10-20T06:06:51.000Z</Time>
            <Position>
              <LatitudeDegrees>39.0213140286505222320556640625</LatitudeDegrees>
              <LongitudeDegrees>-6.87291073612868785858154296875</LongitudeDegrees>
            </Position>
            <AltitudeMeters>241.8000030517578125</AltitudeMeters>
            <DistanceMeters>2594.9197152572</DistanceMeters>
          </Trackpoint>
          <Trackpoint>
            <Time>2021-10-20T06:06:54.000Z</Time>
            <Position>
              <LatitudeDegrees>39.02122207917273044586181640625</LatitudeDegrees>
              <LongitudeDegrees>-6.87281300313770771026611328125</LongitudeDegrees>
            </Position>
            <AltitudeMeters>241.600006103515625</AltitudeMeters>
            <DistanceMeters>2608.1921954802</DistanceMeters>
          </Trackpoint>
          <Trackpoint>
            <Time>2021-10-20T06:06:59.000Z</Time>
            <Position>
              <LatitudeDegrees>39.02107137255370616912841796875</LatitudeDegrees>
              <LongitudeDegrees>-6.87267570756375789642333984375</LongitudeDegrees>
            </Position>
            <AltitudeMeters>240</AltitudeMeters>
            <DistanceMeters>2628.7425875721</DistanceMeters>
          </Trackpoint>
          <Trackpoint>
            <Time>2021-10-20T06:07:00.000Z</Time>
            <Position>
              <LatitudeDegrees>39.02104052715003490447998046875</LatitudeDegrees>
              <LongitudeDegrees>-6.87265257351100444793701171875</LongitudeDegrees>
            </Position>
            <AltitudeMeters>239.600006103515625</AltitudeMeters>
            <DistanceMeters>2632.7155680181</DistanceMeters>
          </Trackpoint>
          <Trackpoint>
            <Time>2021-10-20T06:07:04.000Z</Time>
            <Position>
              <LatitudeDegrees>39.0209143795073032379150390625</LatitudeDegrees>
              <LongitudeDegrees>-6.87256045639514923095703125</LongitudeDegrees>
            </Position>
            <AltitudeMeters>238.8000030517578125</AltitudeMeters>
            <DistanceMeters>2648.8583665989</DistanceMeters>
          </Trackpoint>
          <Trackpoint>
            <Time>2021-10-20T06:07:05.000Z</Time>
            <Position>
              <LatitudeDegrees>39.0208773314952850341796875</LatitudeDegrees>
              <LongitudeDegrees>-6.87254176475107669830322265625</LongitudeDegrees>
            </Position>
            <AltitudeMeters>238.600006103515625</AltitudeMeters>
            <DistanceMeters>2653.2880794691</DistanceMeters>
          </Trackpoint>
          <Trackpoint>
            <Time>2021-10-20T06:07:06.000Z</Time>
            <Position>
              <LatitudeDegrees>39.0208443067967891693115234375</LatitudeDegrees>
              <LongitudeDegrees>-6.87252684496343135833740234375</LongitudeDegrees>
            </Position>
            <AltitudeMeters>238.600006103515625</AltitudeMeters>
            <DistanceMeters>2657.1841747583</DistanceMeters>
          </Trackpoint>
          <Trackpoint>
            <Time>2021-10-20T06:07:12.000Z</Time>
            <Position>
              <LatitudeDegrees>39.02066149748861789703369140625</LatitudeDegrees>
              <LongitudeDegrees>-6.87241000123322010040283203125</LongitudeDegrees>
            </Position>
            <AltitudeMeters>238</AltitudeMeters>
            <DistanceMeters>2679.9017214772</DistanceMeters>
          </Trackpoint>
          <Trackpoint>
            <Time>2021-10-20T06:07:17.000Z</Time>
            <Position>
              <LatitudeDegrees>39.02050408534705638885498046875</LatitudeDegrees>
              <LongitudeDegrees>-6.87229265458881855010986328125</LongitudeDegrees>
            </Position>
            <AltitudeMeters>238</AltitudeMeters>
            <DistanceMeters>2700.1484335621</DistanceMeters>
          </Trackpoint>
          <Trackpoint>
            <Time>2021-10-20T06:07:22.000Z</Time>
            <Position>
              <LatitudeDegrees>39.020321778953075408935546875</LatitudeDegrees>
              <LongitudeDegrees>-6.8722250126302242279052734375</LongitudeDegrees>
            </Position>
            <AltitudeMeters>237.600006103515625</AltitudeMeters>
            <DistanceMeters>2721.2657557197</DistanceMeters>
          </Trackpoint>
          <Trackpoint>
            <Time>2021-10-20T06:07:26.000Z</Time>
            <Position>
              <LatitudeDegrees>39.02019160799682140350341796875</LatitudeDegrees>
              <LongitudeDegrees>-6.872176565229892730712890625</LongitudeDegrees>
            </Position>
            <AltitudeMeters>237.399993896484375</AltitudeMeters>
            <DistanceMeters>2736.3477856104</DistanceMeters>
          </Trackpoint>
          <Trackpoint>
            <Time>2021-10-20T06:07:32.000Z</Time>
            <Position>
              <LatitudeDegrees>39.0199849940836429595947265625</LatitudeDegrees>
              <LongitudeDegrees>-6.87210607342422008514404296875</LongitudeDegrees>
            </Position>
            <AltitudeMeters>236.600006103515625</AltitudeMeters>
            <DistanceMeters>2760.1384594435</DistanceMeters>
          </Trackpoint>
          <Trackpoint>
            <Time>2021-10-20T06:07:38.000Z</Time>
            <Position>
              <LatitudeDegrees>39.01979665271937847137451171875</LatitudeDegrees>
              <LongitudeDegrees>-6.872026026248931884765625</LongitudeDegrees>
            </Position>
            <AltitudeMeters>235.600006103515625</AltitudeMeters>
            <DistanceMeters>2782.2145375752</DistanceMeters>
          </Trackpoint>
          <Trackpoint>
            <Time>2021-10-20T06:07:44.000Z</Time>
            <Position>
              <LatitudeDegrees>39.01960252784192562103271484375</LatitudeDegrees>
              <LongitudeDegrees>-6.87196861021220684051513671875</LongitudeDegrees>
            </Position>
            <AltitudeMeters>234.8000030517578125</AltitudeMeters>
            <DistanceMeters>2804.3842924401</DistanceMeters>
          </Trackpoint>
          <Trackpoint>
            <Time>2021-10-20T06:07:48.000Z</Time>
            <Position>
              <LatitudeDegrees>39.0194787271320819854736328125</LatitudeDegrees>
              <LongitudeDegrees>-6.87195084057748317718505859375</LongitudeDegrees>
            </Position>
            <AltitudeMeters>235</AltitudeMeters>
            <DistanceMeters>2818.2490775931</DistanceMeters>
          </Trackpoint>
          <Trackpoint>
            <Time>2021-10-20T06:07:56.000Z</Time>
            <Position>
              <LatitudeDegrees>39.0193509869277477264404296875</LatitudeDegrees>
              <LongitudeDegrees>-6.8719457276165485382080078125</LongitudeDegrees>
            </Position>
            <AltitudeMeters>235.1999969482421875</AltitudeMeters>
            <DistanceMeters>2832.4735959639</DistanceMeters>
          </Trackpoint>
          <Trackpoint>
            <Time>2021-10-20T06:08:02.000Z</Time>
            <Position>
              <LatitudeDegrees>39.01926674880087375640869140625</LatitudeDegrees>
              <LongitudeDegrees>-6.87192871235311031341552734375</LongitudeDegrees>
            </Position>
            <AltitudeMeters>235.1999969482421875</AltitudeMeters>
            <DistanceMeters>2841.964857345</DistanceMeters>
          </Trackpoint>
          <Trackpoint>
            <Time>2021-10-20T06:08:13.000Z</Time>
            <Position>
              <LatitudeDegrees>39.0190861187875270843505859375</LatitudeDegrees>
              <LongitudeDegrees>-6.87189836986362934112548828125</LongitudeDegrees>
            </Position>
            <AltitudeMeters>236</AltitudeMeters>
            <DistanceMeters>2862.2396480932</DistanceMeters>
          </Trackpoint>
          <Trackpoint>
            <Time>2021-10-20T06:08:18.000Z</Time>
            <Position>
              <LatitudeDegrees>39.01900850236415863037109375</LatitudeDegrees>
              <LongitudeDegrees>-6.871880181133747100830078125</LongitudeDegrees>
            </Position>
            <AltitudeMeters>236.600006103515625</AltitudeMeters>
            <DistanceMeters>2871.0202399114</DistanceMeters>
          </Trackpoint>
          <Trackpoint>
            <Time>2021-10-20T06:08:28.000Z</Time>
            <Position>
              <LatitudeDegrees>39.0188235975801944732666015625</LatitudeDegrees>
              <LongitudeDegrees>-6.87178504653275012969970703125</LongitudeDegrees>
            </Position>
            <AltitudeMeters>237.600006103515625</AltitudeMeters>
            <DistanceMeters>2893.1838842073</DistanceMeters>
          </Trackpoint>
          <Trackpoint>
            <Time>2021-10-20T06:08:37.000Z</Time>
            <Position>
              <LatitudeDegrees>39.01867062784731388092041015625</LatitudeDegrees>
              <LongitudeDegrees>-6.87162679620087146759033203125</LongitudeDegrees>
            </Position>
            <AltitudeMeters>236.399993896484375</AltitudeMeters>
            <DistanceMeters>2915.0278369031</DistanceMeters>
          </Trackpoint>
          <Trackpoint>
            <Time>2021-10-20T06:08:46.000Z</Time>
            <Position>
              <LatitudeDegrees>39.01850416325032711029052734375</LatitudeDegrees>
              <LongitudeDegrees>-6.87149704433977603912353515625</LongitudeDegrees>
            </Position>
            <AltitudeMeters>236</AltitudeMeters>
            <DistanceMeters>2936.6883004669</DistanceMeters>
          </Trackpoint>
          <Trackpoint>
            <Time>2021-10-20T06:08:49.000Z</Time>
            <Position>
              <LatitudeDegrees>39.01844783686101436614990234375</LatitudeDegrees>
              <LongitudeDegrees>-6.87144859693944454193115234375</LongitudeDegrees>
            </Position>
            <AltitudeMeters>235.600006103515625</AltitudeMeters>
            <DistanceMeters>2944.2284172625</DistanceMeters>
          </Trackpoint>
          <Trackpoint>
            <Time>2021-10-20T06:08:55.000Z</Time>
            <Position>
              <LatitudeDegrees>39.0182905085384845733642578125</LatitudeDegrees>
              <LongitudeDegrees>-6.87130677513778209686279296875</LongitudeDegrees>
            </Position>
            <AltitudeMeters>235</AltitudeMeters>
            <DistanceMeters>2965.6071049943</DistanceMeters>
          </Trackpoint>
          <Trackpoint>
            <Time>2021-10-20T06:09:00.000Z</Time>
            <Position>
              <LatitudeDegrees>39.0181470103561878204345703125</LatitudeDegrees>
              <LongitudeDegrees>-6.871164031326770782470703125</LongitudeDegrees>
            </Position>
            <AltitudeMeters>235.1999969482421875</AltitudeMeters>
            <DistanceMeters>2985.7930696593</DistanceMeters>
          </Trackpoint>
          <Trackpoint>
            <Time>2021-10-20T06:09:05.000Z</Time>
            <Position>
              <LatitudeDegrees>39.017996974289417266845703125</LatitudeDegrees>
              <LongitudeDegrees>-6.87103235162794589996337890625</LongitudeDegrees>
            </Position>
            <AltitudeMeters>236.399993896484375</AltitudeMeters>
            <DistanceMeters>3006.0054104064</DistanceMeters>
          </Trackpoint>
          <Trackpoint>
            <Time>2021-10-20T06:09:10.000Z</Time>
            <Position>
              <LatitudeDegrees>39.01783914305269718170166015625</LatitudeDegrees>
              <LongitudeDegrees>-6.87091047875583171844482421875</LongitudeDegrees>
            </Position>
            <AltitudeMeters>238.600006103515625</AltitudeMeters>
            <DistanceMeters>3026.4911071887</DistanceMeters>
          </Trackpoint>
          <Trackpoint>
            <Time>2021-10-20T06:09:13.000Z</Time>
            <Position>
              <LatitudeDegrees>39.01775046251714229583740234375</LatitudeDegrees>
              <LongitudeDegrees>-6.8708324432373046875</LongitudeDegrees>
            </Position>
            <AltitudeMeters>238.8000030517578125</AltitudeMeters>
            <DistanceMeters>3038.4478697213</DistanceMeters>
          </Trackpoint>
          <Trackpoint>
            <Time>2021-10-20T06:09:14.000Z</Time>
            <Position>
              <LatitudeDegrees>39.01772280223667621612548828125</LatitudeDegrees>
              <LongitudeDegrees>-6.8708064593374729156494140625</LongitudeDegrees>
            </Position>
            <AltitudeMeters>239</AltitudeMeters>
            <DistanceMeters>3042.2607981333</DistanceMeters>
          </Trackpoint>
          <Trackpoint>
            <Time>2021-10-20T06:09:20.000Z</Time>
            <Position>
              <LatitudeDegrees>39.01754359714686870574951171875</LatitudeDegrees>
              <LongitudeDegrees>-6.87066421844065189361572265625</LongitudeDegrees>
            </Position>
            <AltitudeMeters>239</AltitudeMeters>
            <DistanceMeters>3065.6944706733</DistanceMeters>
          </Trackpoint>
          <Trackpoint>
            <Time>2021-10-20T06:09:26.000Z</Time>
            <Position>
              <LatitudeDegrees>39.017352573573589324951171875</LatitudeDegrees>
              <LongitudeDegrees>-6.870537735521793365478515625</LongitudeDegrees>
            </Position>
            <AltitudeMeters>238</AltitudeMeters>
            <DistanceMeters>3089.6042193025</DistanceMeters>
          </Trackpoint>
          <Trackpoint>
            <Time>2021-10-20T06:09:30.000Z</Time>
            <Position>
              <LatitudeDegrees>39.01722508482635021209716796875</LatitudeDegrees>
              <LongitudeDegrees>-6.87042541801929473876953125</LongitudeDegrees>
            </Position>
            <AltitudeMeters>237</AltitudeMeters>
            <DistanceMeters>3106.8001165816</DistanceMeters>
          </Trackpoint>
          <Trackpoint>
            <Time>2021-10-20T06:09:36.000Z</Time>
            <Position>
              <LatitudeDegrees>39.017061889171600341796875</LatitudeDegrees>
              <LongitudeDegrees>-6.870252750813961029052734375</LongitudeDegrees>
            </Position>
            <AltitudeMeters>236.399993896484375</AltitudeMeters>
            <DistanceMeters>3130.3136125028</DistanceMeters>
          </Trackpoint>
          <Trackpoint>
            <Time>2021-10-20T06:09:42.000Z</Time>
            <Position>
              <LatitudeDegrees>39.01692249812185764312744140625</LatitudeDegrees>
              <LongitudeDegrees>-6.870085783302783966064453125</LongitudeDegrees>
            </Position>
            <AltitudeMeters>236.600006103515625</AltitudeMeters>
            <DistanceMeters>3151.5073394633</DistanceMeters>
          </Trackpoint>
          <Trackpoint>
            <Time>2021-10-20T06:09:47.000Z</Time>
            <Position>
              <LatitudeDegrees>39.01680749841034412384033203125</LatitudeDegrees>
              <LongitudeDegrees>-6.8699712865054607391357421875</LongitudeDegrees>
            </Position>
            <AltitudeMeters>237.399993896484375</AltitudeMeters>
            <DistanceMeters>3167.6898058042</DistanceMeters>
          </Trackpoint>
          <Trackpoint>
            <Time>2021-10-20T06:09:49.000Z</Time>
            <Position>
              <LatitudeDegrees>39.01676952838897705078125</LatitudeDegrees>
              <LongitudeDegrees>-6.8699360825121402740478515625</LongitudeDegrees>
            </Position>
            <AltitudeMeters>237.600006103515625</AltitudeMeters>
            <DistanceMeters>3172.898102036</DistanceMeters>
          </Trackpoint>
          <Trackpoint>
            <Time>2021-10-20T06:09:58.000Z</Time>
            <Position>
              <LatitudeDegrees>39.01668210513889789581298828125</LatitudeDegrees>
              <LongitudeDegrees>-6.8698737211525440216064453125</LongitudeDegrees>
            </Position>
            <AltitudeMeters>237.8000030517578125</AltitudeMeters>
            <DistanceMeters>3184.0231291254</DistanceMeters>
          </Trackpoint>
          <Trackpoint>
            <Time>2021-10-20T06:10:09.000Z</Time>
            <Position>
              <LatitudeDegrees>39.01657716371119022369384765625</LatitudeDegrees>
              <LongitudeDegrees>-6.86973399482667446136474609375</LongitudeDegrees>
            </Position>
            <AltitudeMeters>237.600006103515625</AltitudeMeters>
            <DistanceMeters>3200.8288930455</DistanceMeters>
          </Trackpoint>
          <Trackpoint>
            <Time>2021-10-20T06:10:20.000Z</Time>
            <Position>
              <LatitudeDegrees>39.01643852703273296356201171875</LatitudeDegrees>
              <LongitudeDegrees>-6.86956518329679965972900390625</LongitudeDegrees>
            </Position>
            <AltitudeMeters>236.8000030517578125</AltitudeMeters>
            <DistanceMeters>3222.0707117</DistanceMeters>
          </Trackpoint>
          <Trackpoint>
            <Time>2021-10-20T06:10:29.000Z</Time>
            <Position>
              <LatitudeDegrees>39.0162988007068634033203125</LatitudeDegrees>
              <LongitudeDegrees>-6.86940240673720836639404296875</LongitudeDegrees>
            </Position>
            <AltitudeMeters>236</AltitudeMeters>
            <DistanceMeters>3243.0468768597</DistanceMeters>
          </Trackpoint>
          <Trackpoint>
            <Time>2021-10-20T06:10:37.000Z</Time>
            <Position>
              <LatitudeDegrees>39.01615723036229610443115234375</LatitudeDegrees>
              <LongitudeDegrees>-6.8692326731979846954345703125</LongitudeDegrees>
            </Position>
            <AltitudeMeters>236</AltitudeMeters>
            <DistanceMeters>3264.5812806291</DistanceMeters>
          </Trackpoint>
          <Trackpoint>
            <Time>2021-10-20T06:10:45.000Z</Time>
            <Position>
              <LatitudeDegrees>39.0160029195249080657958984375</LatitudeDegrees>
              <LongitudeDegrees>-6.86910468153655529022216796875</LongitudeDegrees>
            </Position>
            <AltitudeMeters>236.399993896484375</AltitudeMeters>
            <DistanceMeters>3285.0137920811</DistanceMeters>
          </Trackpoint>
          <Trackpoint>
            <Time>2021-10-20T06:10:50.000Z</Time>
            <Position>
              <LatitudeDegrees>39.0159080363810062408447265625</LatitudeDegrees>
              <LongitudeDegrees>-6.8690368719398975372314453125</LongitudeDegrees>
            </Position>
            <AltitudeMeters>237</AltitudeMeters>
            <DistanceMeters>3297.0934032196</DistanceMeters>
          </Trackpoint>
          <Trackpoint>
            <Time>2021-10-20T06:10:52.000Z</Time>
            <Position>
              <LatitudeDegrees>39.01590459980070590972900390625</LatitudeDegrees>
              <LongitudeDegrees>-6.86906059272587299346923828125</LongitudeDegrees>
            </Position>
            <AltitudeMeters>236.8000030517578125</AltitudeMeters>
            <DistanceMeters>3299.1796670682</DistanceMeters>
          </Trackpoint>
          <Trackpoint>
            <Time>2021-10-20T06:10:58.000Z</Time>
            <Position>
              <LatitudeDegrees>39.01605480350553989410400390625</LatitudeDegrees>
              <LongitudeDegrees>-6.86920191161334514617919921875</LongitudeDegrees>
            </Position>
            <AltitudeMeters>236</AltitudeMeters>
            <DistanceMeters>3319.8882971629</DistanceMeters>
          </Trackpoint>
          <Trackpoint>
            <Time>2021-10-20T06:11:04.000Z</Time>
            <Position>
              <LatitudeDegrees>39.01620567776262760162353515625</LatitudeDegrees>
              <LongitudeDegrees>-6.86938874423503875732421875</LongitudeDegrees>
            </Position>
            <AltitudeMeters>235.8000030517578125</AltitudeMeters>
            <DistanceMeters>3343.1911649469</DistanceMeters>
          </Trackpoint>
          <Trackpoint>
            <Time>2021-10-20T06:11:10.000Z</Time>
            <Position>
              <LatitudeDegrees>39.01634909212589263916015625</LatitudeDegrees>
              <LongitudeDegrees>-6.86958395875990390777587890625</LongitudeDegrees>
            </Position>
            <AltitudeMeters>236.399993896484375</AltitudeMeters>
            <DistanceMeters>3366.4243706989</DistanceMeters>
          </Trackpoint>
          <Trackpoint>
            <Time>2021-10-20T06:11:16.000Z</Time>
            <Position>
              <LatitudeDegrees>39.01649669744074344635009765625</LatitudeDegrees>
              <LongitudeDegrees>-6.8697781674563884735107421875</LongitudeDegrees>
            </Position>
            <AltitudeMeters>237.8000030517578125</AltitudeMeters>
            <DistanceMeters>3389.9184646954</DistanceMeters>
          </Trackpoint>
          <Trackpoint>
            <Time>2021-10-20T06:11:22.000Z</Time>
            <Position>
              <LatitudeDegrees>39.01664681732654571533203125</LatitudeDegrees>
              <LongitudeDegrees>-6.8699379265308380126953125</LongitudeDegrees>
            </Position>
            <AltitudeMeters>237.600006103515625</AltitudeMeters>
            <DistanceMeters>3411.5991380985</DistanceMeters>
          </Trackpoint>
          <Trackpoint>
            <Time>2021-10-20T06:11:28.000Z</Time>
            <Position>
              <LatitudeDegrees>39.01679836213588714599609375</LatitudeDegrees>
              <LongitudeDegrees>-6.87013196758925914764404296875</LongitudeDegrees>
            </Position>
            <AltitudeMeters>236.8000030517578125</AltitudeMeters>
            <DistanceMeters>3435.391519907</DistanceMeters>
          </Trackpoint>
          <Trackpoint>
            <Time>2021-10-20T06:11:34.000Z</Time>
            <Position>
              <LatitudeDegrees>39.0169326402246952056884765625</LatitudeDegrees>
              <LongitudeDegrees>-6.870315782725811004638671875</LongitudeDegrees>
            </Position>
            <AltitudeMeters>236.1999969482421875</AltitudeMeters>
            <DistanceMeters>3457.2100342921</DistanceMeters>
          </Trackpoint>
          <Trackpoint>
            <Time>2021-10-20T06:11:40.000Z</Time>
            <Position>
              <LatitudeDegrees>39.017085693776607513427734375</LatitudeDegrees>
              <LongitudeDegrees>-6.8704985082149505615234375</LongitudeDegrees>
            </Position>
            <AltitudeMeters>237</AltitudeMeters>
            <DistanceMeters>3480.445377637</DistanceMeters>
          </Trackpoint>
          <Trackpoint>
            <Time>2021-10-20T06:11:45.000Z</Time>
            <Position>
              <LatitudeDegrees>39.017233550548553466796875</LatitudeDegrees>
              <LongitudeDegrees>-6.870634295046329498291015625</LongitudeDegrees>
            </Position>
            <AltitudeMeters>237.8000030517578125</AltitudeMeters>
            <DistanceMeters>3500.6621854959</DistanceMeters>
          </Trackpoint>
          <Trackpoint>
            <Time>2021-10-20T06:11:51.000Z</Time>
            <Position>
              <LatitudeDegrees>39.0174097381532192230224609375</LatitudeDegrees>
              <LongitudeDegrees>-6.87076765112578868865966796875</LongitudeDegrees>
            </Position>
            <AltitudeMeters>239</AltitudeMeters>
            <DistanceMeters>3523.4115094673</DistanceMeters>
          </Trackpoint>
          <Trackpoint>
            <Time>2021-10-20T06:11:52.000Z</Time>
            <Position>
              <LatitudeDegrees>39.01744544506072998046875</LatitudeDegrees>
              <LongitudeDegrees>-6.87078005634248256683349609375</LongitudeDegrees>
            </Position>
            <AltitudeMeters>239</AltitudeMeters>
            <DistanceMeters>3527.5273840292</DistanceMeters>
          </Trackpoint>
          <Trackpoint>
            <Time>2021-10-20T06:11:59.000Z</Time>
            <Position>
              <LatitudeDegrees>39.01755734346807003021240234375</LatitudeDegrees>
              <LongitudeDegrees>-6.870850212872028350830078125</LongitudeDegrees>
            </Position>
            <AltitudeMeters>239.399993896484375</AltitudeMeters>
            <DistanceMeters>3541.381092729</DistanceMeters>
          </Trackpoint>
          <Trackpoint>
            <Time>2021-10-20T06:12:09.000Z</Time>
            <Position>
              <LatitudeDegrees>39.01768147945404052734375</LatitudeDegrees>
              <LongitudeDegrees>-6.87090997584164142608642578125</LongitudeDegrees>
            </Position>
            <AltitudeMeters>239.600006103515625</AltitudeMeters>
            <DistanceMeters>3556.1325937424</DistanceMeters>
          </Trackpoint>
          <Trackpoint>
            <Time>2021-10-20T06:12:20.000Z</Time>
            <Position>
              <LatitudeDegrees>39.01784718967974185943603515625</LatitudeDegrees>
              <LongitudeDegrees>-6.87101877294480800628662109375</LongitudeDegrees>
            </Position>
            <AltitudeMeters>237.600006103515625</AltitudeMeters>
            <DistanceMeters>3576.837735113</DistanceMeters>
          </Trackpoint>
          <Trackpoint>
            <Time>2021-10-20T06:12:30.000Z</Time>
            <Position>
              <LatitudeDegrees>39.0180132351815700531005859375</LatitudeDegrees>
              <LongitudeDegrees>-6.87113595195114612579345703125</LongitudeDegrees>
            </Position>
            <AltitudeMeters>235.600006103515625</AltitudeMeters>
            <DistanceMeters>3597.9146089481</DistanceMeters>
          </Trackpoint>
          <Trackpoint>
            <Time>2021-10-20T06:12:39.000Z</Time>
            <Position>
              <LatitudeDegrees>39.018176011741161346435546875</LatitudeDegrees>
              <LongitudeDegrees>-6.87126201577484607696533203125</LongitudeDegrees>
            </Position>
            <AltitudeMeters>235</AltitudeMeters>
            <DistanceMeters>3619.0588536672</DistanceMeters>
          </Trackpoint>
          <Trackpoint>
            <Time>2021-10-20T06:12:47.000Z</Time>
            <Position>
              <LatitudeDegrees>39.0183240361511707305908203125</LatitudeDegrees>
              <LongitudeDegrees>-6.87139361165463924407958984375</LongitudeDegrees>
            </Position>
            <AltitudeMeters>235.1999969482421875</AltitudeMeters>
            <DistanceMeters>3639.081999375</DistanceMeters>
          </Trackpoint>
          <Trackpoint>
            <Time>2021-10-20T06:12:50.000Z</Time>
            <Position>
              <LatitudeDegrees>39.01838296093046665191650390625</LatitudeDegrees>
              <LongitudeDegrees>-6.87144692055881023406982421875</LongitudeDegrees>
            </Position>
            <AltitudeMeters>235.600006103515625</AltitudeMeters>
            <DistanceMeters>3647.0986728778</DistanceMeters>
          </Trackpoint>
          <Trackpoint>
            <Time>2021-10-20T06:12:54.000Z</Time>
            <Position>
              <LatitudeDegrees>39.01845655404031276702880859375</LatitudeDegrees>
              <LongitudeDegrees>-6.87150995247066020965576171875</LongitudeDegrees>
            </Position>
            <AltitudeMeters>236</AltitudeMeters>
            <DistanceMeters>3656.9374949353</DistanceMeters>
          </Trackpoint>
          <Trackpoint>
            <Time>2021-10-20T06:13:00.000Z</Time>
            <Position>
              <LatitudeDegrees>39.018617235124111175537109375</LatitudeDegrees>
              <LongitudeDegrees>-6.871677003800868988037109375</LongitudeDegrees>
            </Position>
            <AltitudeMeters>237</AltitudeMeters>
            <DistanceMeters>3679.9272834134</DistanceMeters>
          </Trackpoint>
          <Trackpoint>
            <Time>2021-10-20T06:13:06.000Z</Time>
            <Position>
              <LatitudeDegrees>39.01878512464463710784912109375</LatitudeDegrees>
              <LongitudeDegrees>-6.87183131463825702667236328125</LongitudeDegrees>
            </Position>
            <AltitudeMeters>237.600006103515625</AltitudeMeters>
            <DistanceMeters>3702.8891671212</DistanceMeters>
          </Trackpoint>
          <Trackpoint>
            <Time>2021-10-20T06:13:12.000Z</Time>
            <Position>
              <LatitudeDegrees>39.01897606439888477325439453125</LatitudeDegrees>
              <LongitudeDegrees>-6.87195268459618091583251953125</LongitudeDegrees>
            </Position>
            <AltitudeMeters>236.600006103515625</AltitudeMeters>
            <DistanceMeters>3726.5914281079</DistanceMeters>
          </Trackpoint>
          <Trackpoint>
            <Time>2021-10-20T06:13:17.000Z</Time>
            <Position>
              <LatitudeDegrees>39.01915376074612140655517578125</LatitudeDegrees>
              <LongitudeDegrees>-6.87200817279517650604248046875</LongitudeDegrees>
            </Position>
            <AltitudeMeters>235.8000030517578125</AltitudeMeters>
            <DistanceMeters>3746.9433463568</DistanceMeters>
          </Trackpoint>
          <Trackpoint>
            <Time>2021-10-20T06:13:23.000Z</Time>
            <Position>
              <LatitudeDegrees>39.01934654451906681060791015625</LatitudeDegrees>
              <LongitudeDegrees>-6.87205662019550800323486328125</LongitudeDegrees>
            </Position>
            <AltitudeMeters>235.8000030517578125</AltitudeMeters>
            <DistanceMeters>3768.8061002165</DistanceMeters>
          </Trackpoint>
          <Trackpoint>
            <Time>2021-10-20T06:13:29.000Z</Time>
            <Position>
              <LatitudeDegrees>39.0195447765290737152099609375</LatitudeDegrees>
              <LongitudeDegrees>-6.8720862083137035369873046875</LongitudeDegrees>
            </Position>
            <AltitudeMeters>235.1999969482421875</AltitudeMeters>
            <DistanceMeters>3791.0175656441</DistanceMeters>
          </Trackpoint>
          <Trackpoint>
            <Time>2021-10-20T06:13:35.000Z</Time>
            <Position>
              <LatitudeDegrees>39.01973160915076732635498046875</LatitudeDegrees>
              <LongitudeDegrees>-6.87215971760451793670654296875</LongitudeDegrees>
            </Position>
            <AltitudeMeters>236</AltitudeMeters>
            <DistanceMeters>3812.7622859863</DistanceMeters>
          </Trackpoint>
          <Trackpoint>
            <Time>2021-10-20T06:13:41.000Z</Time>
            <Position>
              <LatitudeDegrees>39.0199162624776363372802734375</LatitudeDegrees>
              <LongitudeDegrees>-6.8722392618656158447265625</LongitudeDegrees>
            </Position>
            <AltitudeMeters>236.8000030517578125</AltitudeMeters>
            <DistanceMeters>3834.4348360492</DistanceMeters>
          </Trackpoint>
          <Trackpoint>
            <Time>2021-10-20T06:13:42.000Z</Time>
            <Position>
              <LatitudeDegrees>39.019946940243244171142578125</LatitudeDegrees>
              <LongitudeDegrees>-6.87224932014942169189453125</LongitudeDegrees>
            </Position>
            <AltitudeMeters>237</AltitudeMeters>
            <DistanceMeters>3837.959802033</DistanceMeters>
          </Trackpoint>
          <Trackpoint>
            <Time>2021-10-20T06:19:23.000Z</Time>
            <Position>
              <LatitudeDegrees>39.02579071931540966033935546875</LatitudeDegrees>
              <LongitudeDegrees>-6.87575840391218662261962890625</LongitudeDegrees>
            </Position>
            <AltitudeMeters>241.600006103515625</AltitudeMeters>
            <DistanceMeters>4555.6794841208</DistanceMeters>
          </Trackpoint>
          <Trackpoint>
            <Time>2021-10-20T06:19:27.000Z</Time>
            <Position>
              <LatitudeDegrees>39.02581385336816310882568359375</LatitudeDegrees>
              <LongitudeDegrees>-6.87583677470684051513671875</LongitudeDegrees>
            </Position>
            <AltitudeMeters>241.8000030517578125</AltitudeMeters>
            <DistanceMeters>4562.928969958</DistanceMeters>
          </Trackpoint>
          <Trackpoint>
            <Time>2021-10-20T06:19:37.000Z</Time>
            <Position>
              <LatitudeDegrees>39.02590203098952770233154296875</LatitudeDegrees>
              <LongitudeDegrees>-6.87607146799564361572265625</LongitudeDegrees>
            </Position>
            <AltitudeMeters>242.1999969482421875</AltitudeMeters>
            <DistanceMeters>4585.4707407753</DistanceMeters>
          </Trackpoint>
          <Trackpoint>
            <Time>2021-10-20T06:19:39.000Z</Time>
            <Position>
              <LatitudeDegrees>39.02592499740421772003173828125</LatitudeDegrees>
              <LongitudeDegrees>-6.87612402252852916717529296875</LongitudeDegrees>
            </Position>
            <AltitudeMeters>242.1999969482421875</AltitudeMeters>
            <DistanceMeters>4590.6851017306</DistanceMeters>
          </Trackpoint>
          <Trackpoint>
            <Time>2021-10-20T06:19:40.000Z</Time>
            <Position>
              <LatitudeDegrees>39.02593807317316532135009765625</LatitudeDegrees>
              <LongitudeDegrees>-6.87615101225674152374267578125</LongitudeDegrees>
            </Position>
            <AltitudeMeters>242</AltitudeMeters>
            <DistanceMeters>4593.4359568813</DistanceMeters>
          </Trackpoint>
          <Trackpoint>
            <Time>2021-10-20T06:19:42.000Z</Time>
            <Position>
              <LatitudeDegrees>39.0259669907391071319580078125</LatitudeDegrees>
              <LongitudeDegrees>-6.87620264478027820587158203125</LongitudeDegrees>
            </Position>
            <AltitudeMeters>242</AltitudeMeters>
            <DistanceMeters>4598.9393082596</DistanceMeters>
          </Trackpoint>
          <Trackpoint>
            <Time>2021-10-20T06:19:44.000Z</Time>
            <Position>
              <LatitudeDegrees>39.02599557302892208099365234375</LatitudeDegrees>
              <LongitudeDegrees>-6.87625394202768802642822265625</LongitudeDegrees>
            </Position>
            <AltitudeMeters>242.1999969482421875</AltitudeMeters>
            <DistanceMeters>4604.3981773975</DistanceMeters>
          </Trackpoint>
          <Trackpoint>
            <Time>2021-10-20T06:19:47.000Z</Time>
            <Position>
              <LatitudeDegrees>39.02604050002992153167724609375</LatitudeDegrees>
              <LongitudeDegrees>-6.876331977546215057373046875</LongitudeDegrees>
            </Position>
            <AltitudeMeters>242.399993896484375</AltitudeMeters>
            <DistanceMeters>4612.796625296</DistanceMeters>
          </Trackpoint>
          <Trackpoint>
            <Time>2021-10-20T06:19:48.000Z</Time>
            <Position>
              <LatitudeDegrees>39.02605533599853515625</LatitudeDegrees>
              <LongitudeDegrees>-6.87635838054120540618896484375</LongitudeDegrees>
            </Position>
            <AltitudeMeters>242.600006103515625</AltitudeMeters>
            <DistanceMeters>4615.6139710672</DistanceMeters>
          </Trackpoint>
          <Trackpoint>
            <Time>2021-10-20T06:19:50.000Z</Time>
            <Position>
              <LatitudeDegrees>39.02608509175479412078857421875</LatitudeDegrees>
              <LongitudeDegrees>-6.876407079398632049560546875</LongitudeDegrees>
            </Position>
            <AltitudeMeters>242.600006103515625</AltitudeMeters>
            <DistanceMeters>4620.9718263298</DistanceMeters>
          </Trackpoint>
          <Trackpoint>
            <Time>2021-10-20T06:19:52.000Z</Time>
            <Position>
              <LatitudeDegrees>39.02611794881522655487060546875</LatitudeDegrees>
              <LongitudeDegrees>-6.87645829282701015472412109375</LongitudeDegrees>
            </Position>
            <AltitudeMeters>242.600006103515625</AltitudeMeters>
            <DistanceMeters>4626.7144598</DistanceMeters>
          </Trackpoint>
          <Trackpoint>
            <Time>2021-10-20T06:19:56.000Z</Time>
            <Position>
              <LatitudeDegrees>39.0261762030422687530517578125</LatitudeDegrees>
              <LongitudeDegrees>-6.876557283103466033935546875</LongitudeDegrees>
            </Position>
            <AltitudeMeters>243</AltitudeMeters>
            <DistanceMeters>4637.4520580434</DistanceMeters>
          </Trackpoint>
          <Trackpoint>
            <Time>2021-10-20T06:19:57.000Z</Time>
            <Position>
              <LatitudeDegrees>39.02619355358183383941650390625</LatitudeDegrees>
              <LongitudeDegrees>-6.87657832168042659759521484375</LongitudeDegrees>
            </Position>
            <AltitudeMeters>243</AltitudeMeters>
            <DistanceMeters>4640.1060097435</DistanceMeters>
          </Trackpoint>
          <Trackpoint>
            <Time>2021-10-20T06:20:01.000Z</Time>
            <Position>
              <LatitudeDegrees>39.02625725604593753814697265625</LatitudeDegrees>
              <LongitudeDegrees>-6.876669935882091522216796875</LongitudeDegrees>
            </Position>
            <AltitudeMeters>243</AltitudeMeters>
            <DistanceMeters>4650.7371167777</DistanceMeters>
          </Trackpoint>
          <Trackpoint>
            <Time>2021-10-20T06:20:09.000Z</Time>
            <Position>
              <LatitudeDegrees>39.02639522217214107513427734375</LatitudeDegrees>
              <LongitudeDegrees>-6.87684419564902782440185546875</LongitudeDegrees>
            </Position>
            <AltitudeMeters>244</AltitudeMeters>
            <DistanceMeters>4672.250333831</DistanceMeters>
          </Trackpoint>
          <Trackpoint>
            <Time>2021-10-20T06:20:13.000Z</Time>
            <Position>
              <LatitudeDegrees>39.02645431458950042724609375</LatitudeDegrees>
              <LongitudeDegrees>-6.8769426830112934112548828125</LongitudeDegrees>
            </Position>
            <AltitudeMeters>244</AltitudeMeters>
            <DistanceMeters>4683.0101948936</DistanceMeters>
          </Trackpoint>
          <Trackpoint>
            <Time>2021-10-20T06:20:21.000Z</Time>
            <Position>
              <LatitudeDegrees>39.02656822465360164642333984375</LatitudeDegrees>
              <LongitudeDegrees>-6.87712532468140125274658203125</LongitudeDegrees>
            </Position>
            <AltitudeMeters>244.1999969482421875</AltitudeMeters>
            <DistanceMeters>4703.2620353534</DistanceMeters>
          </Trackpoint>
          <Trackpoint>
            <Time>2021-10-20T06:20:27.000Z</Time>
            <Position>
              <LatitudeDegrees>39.0266070328652858734130859375</LatitudeDegrees>
              <LongitudeDegrees>-6.87730201520025730133056640625</LongitudeDegrees>
            </Position>
            <AltitudeMeters>244.399993896484375</AltitudeMeters>
            <DistanceMeters>4719.138607838</DistanceMeters>
          </Trackpoint>
          <Trackpoint>
            <Time>2021-10-20T06:20:31.000Z</Time>
            <Position>
              <LatitudeDegrees>39.0266405604779720306396484375</LatitudeDegrees>
              <LongitudeDegrees>-6.877455152571201324462890625</LongitudeDegrees>
            </Position>
            <AltitudeMeters>244.399993896484375</AltitudeMeters>
            <DistanceMeters>4732.8955094554</DistanceMeters>
          </Trackpoint>
          <Trackpoint>
            <Time>2021-10-20T06:20:37.000Z</Time>
            <Position>
              <LatitudeDegrees>39.02671507559716701507568359375</LatitudeDegrees>
              <LongitudeDegrees>-6.87768070958554744720458984375</LongitudeDegrees>
            </Position>
            <AltitudeMeters>244.600006103515625</AltitudeMeters>
            <DistanceMeters>4754.0883842526</DistanceMeters>
          </Trackpoint>
          <Trackpoint>
            <Time>2021-10-20T06:20:43.000Z</Time>
            <Position>
              <LatitudeDegrees>39.0268170833587646484375</LatitudeDegrees>
              <LongitudeDegrees>-6.87792965210974216461181640625</LongitudeDegrees>
            </Position>
            <AltitudeMeters>243.600006103515625</AltitudeMeters>
            <DistanceMeters>4778.4239447234</DistanceMeters>
          </Trackpoint>
          <Trackpoint>
            <Time>2021-10-20T06:20:49.000Z</Time>
            <Position>
              <LatitudeDegrees>39.02687684632837772369384765625</LatitudeDegrees>
              <LongitudeDegrees>-6.8781878985464572906494140625</LongitudeDegrees>
            </Position>
            <AltitudeMeters>241.8000030517578125</AltitudeMeters>
            <DistanceMeters>4801.7227433051</DistanceMeters>
          </Trackpoint>
          <Trackpoint>
            <Time>2021-10-20T06:20:54.000Z</Time>
            <Position>
              <LatitudeDegrees>39.02689109556376934051513671875</LatitudeDegrees>
              <LongitudeDegrees>-6.87843072228133678436279296875</LongitudeDegrees>
            </Position>
            <AltitudeMeters>241.8000030517578125</AltitudeMeters>
            <DistanceMeters>4822.7783989133</DistanceMeters>
          </Trackpoint>
          <Trackpoint>
            <Time>2021-10-20T06:20:59.000Z</Time>
            <Position>
              <LatitudeDegrees>39.02686058543622493743896484375</LatitudeDegrees>
              <LongitudeDegrees>-6.8786733783781528472900390625</LongitudeDegrees>
            </Position>
            <AltitudeMeters>241.8000030517578125</AltitudeMeters>
            <DistanceMeters>4844.032966995</DistanceMeters>
          </Trackpoint>
          <Trackpoint>
            <Time>2021-10-20T06:21:05.000Z</Time>
            <Position>
              <LatitudeDegrees>39.02687969617545604705810546875</LatitudeDegrees>
              <LongitudeDegrees>-6.878944449126720428466796875</LongitudeDegrees>
            </Position>
            <AltitudeMeters>241.8000030517578125</AltitudeMeters>
            <DistanceMeters>4867.5673836814</DistanceMeters>
          </Trackpoint>
          <Trackpoint>
            <Time>2021-10-20T06:21:10.000Z</Time>
            <Position>
              <LatitudeDegrees>39.0269097872078418731689453125</LatitudeDegrees>
              <LongitudeDegrees>-6.87917436473071575164794921875</LongitudeDegrees>
            </Position>
            <AltitudeMeters>241.600006103515625</AltitudeMeters>
            <DistanceMeters>4887.7269377547</DistanceMeters>
          </Trackpoint>
          <Trackpoint>
            <Time>2021-10-20T06:21:16.000Z</Time>
            <Position>
              <LatitudeDegrees>39.0269533731043338775634765625</LatitudeDegrees>
              <LongitudeDegrees>-6.879441328346729278564453125</LongitudeDegrees>
            </Position>
            <AltitudeMeters>241.600006103515625</AltitudeMeters>
            <DistanceMeters>4911.3142451438</DistanceMeters>
          </Trackpoint>
          <Trackpoint>
            <Time>2021-10-20T06:21:22.000Z</Time>
            <Position>
              <LatitudeDegrees>39.027019254863262176513671875</LatitudeDegrees>
              <LongitudeDegrees>-6.879660598933696746826171875</LongitudeDegrees>
            </Position>
            <AltitudeMeters>241.8000030517578125</AltitudeMeters>
            <DistanceMeters>4931.6419675463</DistanceMeters>
          </Trackpoint>
          <Trackpoint>
            <Time>2021-10-20T06:21:27.000Z</Time>
            <Position>
              <LatitudeDegrees>39.02706610970199108123779296875</LatitudeDegrees>
              <LongitudeDegrees>-6.87982857227325439453125</LongitudeDegrees>
            </Position>
            <AltitudeMeters>242.8000030517578125</AltitudeMeters>
            <DistanceMeters>4947.0734984459</DistanceMeters>
          </Trackpoint>
          <Trackpoint>
            <Time>2021-10-20T06:21:37.000Z</Time>
            <Position>
              <LatitudeDegrees>39.0271008946001529693603515625</LatitudeDegrees>
              <LongitudeDegrees>-6.88000735826790332794189453125</LongitudeDegrees>
            </Position>
            <AltitudeMeters>242.399993896484375</AltitudeMeters>
            <DistanceMeters>4963.0096796042</DistanceMeters>
          </Trackpoint>
          <Trackpoint>
            <Time>2021-10-20T06:21:43.000Z</Time>
            <Position>
              <LatitudeDegrees>39.0271126292645931243896484375</LatitudeDegrees>
              <LongitudeDegrees>-6.8800962902605533599853515625</LongitudeDegrees>
            </Position>
            <AltitudeMeters>242</AltitudeMeters>
            <DistanceMeters>4970.8093991506</DistanceMeters>
          </Trackpoint>
          <Trackpoint>
            <Time>2021-10-20T06:21:46.000Z</Time>
            <Position>
              <LatitudeDegrees>39.0271089412271976470947265625</LatitudeDegrees>
              <LongitudeDegrees>-6.880165524780750274658203125</LongitudeDegrees>
            </Position>
            <AltitudeMeters>241.8000030517578125</AltitudeMeters>
            <DistanceMeters>4976.8103944729</DistanceMeters>
          </Trackpoint>
          <Trackpoint>
            <Time>2021-10-20T06:21:55.000Z</Time>
            <Position>
              <LatitudeDegrees>39.0270626731216907501220703125</LatitudeDegrees>
              <LongitudeDegrees>-6.8804047442972660064697265625</LongitudeDegrees>
            </Position>
            <AltitudeMeters>240.8000030517578125</AltitudeMeters>
            <DistanceMeters>4998.1260536547</DistanceMeters>
          </Trackpoint>
          <Trackpoint>
            <Time>2021-10-20T06:22:02.000Z</Time>
            <Position>
              <LatitudeDegrees>39.02702135033905506134033203125</LatitudeDegrees>
              <LongitudeDegrees>-6.88058688305318355560302734375</LongitudeDegrees>
            </Position>
            <AltitudeMeters>239.1999969482421875</AltitudeMeters>
            <DistanceMeters>5014.5326848969</DistanceMeters>
          </Trackpoint>
          <Trackpoint>
            <Time>2021-10-20T06:22:09.000Z</Time>
            <Position>
              <LatitudeDegrees>39.02692328207194805145263671875</LatitudeDegrees>
              <LongitudeDegrees>-6.88078234903514385223388671875</LongitudeDegrees>
            </Position>
            <AltitudeMeters>238.399993896484375</AltitudeMeters>
            <DistanceMeters>5034.6518848482</DistanceMeters>
          </Trackpoint>
          <Trackpoint>
            <Time>2021-10-20T06:22:16.000Z</Time>
            <Position>
              <LatitudeDegrees>39.026855640113353729248046875</LatitudeDegrees>
              <LongitudeDegrees>-6.8810293637216091156005859375</LongitudeDegrees>
            </Position>
            <AltitudeMeters>238.399993896484375</AltitudeMeters>
            <DistanceMeters>5057.2979690898</DistanceMeters>
          </Trackpoint>
          <Trackpoint>
            <Time>2021-10-20T06:22:17.000Z</Time>
            <Position>
              <LatitudeDegrees>39.02685186825692653656005859375</LatitudeDegrees>
              <LongitudeDegrees>-6.8810612149536609649658203125</LongitudeDegrees>
            </Position>
            <AltitudeMeters>238.600006103515625</AltitudeMeters>
            <DistanceMeters>5060.0830787224</DistanceMeters>
          </Trackpoint>
          <Trackpoint>
            <Time>2021-10-20T06:22:18.000Z</Time>
            <Position>
              <LatitudeDegrees>39.02684851549565792083740234375</LatitudeDegrees>
              <LongitudeDegrees>-6.88109667040407657623291015625</LongitudeDegrees>
            </Position>
            <AltitudeMeters>238.600006103515625</AltitudeMeters>
            <DistanceMeters>5063.1725432069</DistanceMeters>
          </Trackpoint>
          <Trackpoint>
            <Time>2021-10-20T06:22:19.000Z</Time>
            <Position>
              <LatitudeDegrees>39.026841223239898681640625</LatitudeDegrees>
              <LongitudeDegrees>-6.88112734816968441009521484375</LongitudeDegrees>
            </Position>
            <AltitudeMeters>238.8000030517578125</AltitudeMeters>
            <DistanceMeters>5065.9462816824</DistanceMeters>
          </Trackpoint>
          <Trackpoint>
            <Time>2021-10-20T06:22:26.000Z</Time>
            <Position>
              <LatitudeDegrees>39.02678078971803188323974609375</LatitudeDegrees>
              <LongitudeDegrees>-6.88135407865047454833984375</LongitudeDegrees>
            </Position>
            <AltitudeMeters>239.399993896484375</AltitudeMeters>
            <DistanceMeters>5086.6725644314</DistanceMeters>
          </Trackpoint>
          <Trackpoint>
            <Time>2021-10-20T06:22:28.000Z</Time>
            <Position>
              <LatitudeDegrees>39.02674960903823375701904296875</LatitudeDegrees>
              <LongitudeDegrees>-6.88140126876533031463623046875</LongitudeDegrees>
            </Position>
            <AltitudeMeters>239.600006103515625</AltitudeMeters>
            <DistanceMeters>5092.0295769327</DistanceMeters>
          </Trackpoint>
          <Trackpoint>
            <Time>2021-10-20T06:22:30.000Z</Time>
            <Position>
              <LatitudeDegrees>39.02670350857079029083251953125</LatitudeDegrees>
              <LongitudeDegrees>-6.88144393265247344970703125</LongitudeDegrees>
            </Position>
            <AltitudeMeters>239.8000030517578125</AltitudeMeters>
            <DistanceMeters>5098.3486748141</DistanceMeters>
          </Trackpoint>
          <Trackpoint>
            <Time>2021-10-20T06:22:36.000Z</Time>
            <Position>
              <LatitudeDegrees>39.0265528857707977294921875</LatitudeDegrees>
              <LongitudeDegrees>-6.8815865926444530487060546875</LongitudeDegrees>
            </Position>
            <AltitudeMeters>239.600006103515625</AltitudeMeters>
            <DistanceMeters>5119.1623454977</DistanceMeters>
          </Trackpoint>
          <Trackpoint>
            <Time>2021-10-20T06:22:40.000Z</Time>
            <Position>
              <LatitudeDegrees>39.0264424122869968414306640625</LatitudeDegrees>
              <LongitudeDegrees>-6.8816831521689891815185546875</LongitudeDegrees>
            </Position>
            <AltitudeMeters>239.399993896484375</AltitudeMeters>
            <DistanceMeters>5134.0242319802</DistanceMeters>
          </Trackpoint>
          <Trackpoint>
            <Time>2021-10-20T06:22:46.000Z</Time>
            <Position>
              <LatitudeDegrees>39.026292376220226287841796875</LatitudeDegrees>
              <LongitudeDegrees>-6.881843246519565582275390625</LongitudeDegrees>
            </Position>
            <AltitudeMeters>238.399993896484375</AltitudeMeters>
            <DistanceMeters>5155.7146910073</DistanceMeters>
          </Trackpoint>
          <Trackpoint>
            <Time>2021-10-20T06:22:52.000Z</Time>
            <Position>
              <LatitudeDegrees>39.026143513619899749755859375</LatitudeDegrees>
              <LongitudeDegrees>-6.8820291571319103240966796875</LongitudeDegrees>
            </Position>
            <AltitudeMeters>236.8000030517578125</AltitudeMeters>
            <DistanceMeters>5178.7997292663</DistanceMeters>
          </Trackpoint>
          <Trackpoint>
            <Time>2021-10-20T06:22:58.000Z</Time>
            <Position>
              <LatitudeDegrees>39.025996662676334381103515625</LatitudeDegrees>
              <LongitudeDegrees>-6.882227472960948944091796875</LongitudeDegrees>
            </Position>
            <AltitudeMeters>235.399993896484375</AltitudeMeters>
            <DistanceMeters>5202.4892240005</DistanceMeters>
          </Trackpoint>
          <Trackpoint>
            <Time>2021-10-20T06:23:03.000Z</Time>
            <Position>
              <LatitudeDegrees>39.025966823101043701171875</LatitudeDegrees>
              <LongitudeDegrees>-6.88248588703572750091552734375</LongitudeDegrees>
            </Position>
            <AltitudeMeters>234.8000030517578125</AltitudeMeters>
            <DistanceMeters>5225.0788149629</DistanceMeters>
          </Trackpoint>
          <Trackpoint>
            <Time>2021-10-20T06:23:08.000Z</Time>
            <Position>
              <LatitudeDegrees>39.025988616049289703369140625</LatitudeDegrees>
              <LongitudeDegrees>-6.882735751569271087646484375</LongitudeDegrees>
            </Position>
            <AltitudeMeters>234.600006103515625</AltitudeMeters>
            <DistanceMeters>5246.8193821411</DistanceMeters>
          </Trackpoint>
          <Trackpoint>
            <Time>2021-10-20T06:23:13.000Z</Time>
            <Position>
              <LatitudeDegrees>39.02604083530604839324951171875</LatitudeDegrees>
              <LongitudeDegrees>-6.88296181149780750274658203125</LongitudeDegrees>
            </Position>
            <AltitudeMeters>233.600006103515625</AltitudeMeters>
            <DistanceMeters>5267.211636806</DistanceMeters>
          </Trackpoint>
          <Trackpoint>
            <Time>2021-10-20T06:23:19.000Z</Time>
            <Position>
              <LatitudeDegrees>39.02613856829702854156494140625</LatitudeDegrees>
              <LongitudeDegrees>-6.8832069821655750274658203125</LongitudeDegrees>
            </Position>
            <AltitudeMeters>231.600006103515625</AltitudeMeters>
            <DistanceMeters>5291.0385314009</DistanceMeters>
          </Trackpoint>
          <Trackpoint>
            <Time>2021-10-20T06:23:24.000Z</Time>
            <Position>
              <LatitudeDegrees>39.0262157656252384185791015625</LatitudeDegrees>
              <LongitudeDegrees>-6.88341342844069004058837890625</LongitudeDegrees>
            </Position>
            <AltitudeMeters>228.600006103515625</AltitudeMeters>
            <DistanceMeters>5310.8492654208</DistanceMeters>
          </Trackpoint>
          <Trackpoint>
            <Time>2021-10-20T06:23:29.000Z</Time>
            <Position>
              <LatitudeDegrees>39.02627904899418354034423828125</LatitudeDegrees>
              <LongitudeDegrees>-6.8836076371371746063232421875</LongitudeDegrees>
            </Position>
            <AltitudeMeters>226.8000030517578125</AltitudeMeters>
            <DistanceMeters>5329.0589726424</DistanceMeters>
          </Trackpoint>
          <Trackpoint>
            <Time>2021-10-20T06:23:36.000Z</Time>
            <Position>
              <LatitudeDegrees>39.0263168513774871826171875</LatitudeDegrees>
              <LongitudeDegrees>-6.88386521302163600921630859375</LongitudeDegrees>
            </Position>
            <AltitudeMeters>224.399993896484375</AltitudeMeters>
            <DistanceMeters>5351.7243879022</DistanceMeters>
          </Trackpoint>
          <Trackpoint>
            <Time>2021-10-20T06:23:42.000Z</Time>
            <Position>
              <LatitudeDegrees>39.0263753570616245269775390625</LatitudeDegrees>
              <LongitudeDegrees>-6.8840679712593555450439453125</LongitudeDegrees>
            </Position>
            <AltitudeMeters>223.1999969482421875</AltitudeMeters>
            <DistanceMeters>5370.4263116242</DistanceMeters>
          </Trackpoint>
          <Trackpoint>
            <Time>2021-10-20T06:23:50.000Z</Time>
            <Position>
              <LatitudeDegrees>39.02641131542623043060302734375</LatitudeDegrees>
              <LongitudeDegrees>-6.88431481830775737762451171875</LongitudeDegrees>
            </Position>
            <AltitudeMeters>222.600006103515625</AltitudeMeters>
            <DistanceMeters>5392.1423589673</DistanceMeters>
          </Trackpoint>
          <Trackpoint>
            <Time>2021-10-20T06:23:58.000Z</Time>
            <Position>
              <LatitudeDegrees>39.02649949304759502410888671875</LatitudeDegrees>
              <LongitudeDegrees>-6.88454196788370609283447265625</LongitudeDegrees>
            </Position>
            <AltitudeMeters>222.8000030517578125</AltitudeMeters>
            <DistanceMeters>5414.0986715229</DistanceMeters>
          </Trackpoint>
          <Trackpoint>
            <Time>2021-10-20T06:24:05.000Z</Time>
            <Position>
              <LatitudeDegrees>39.0265634469687938690185546875</LatitudeDegrees>
              <LongitudeDegrees>-6.8847234360873699188232421875</LongitudeDegrees>
            </Position>
            <AltitudeMeters>222.399993896484375</AltitudeMeters>
            <DistanceMeters>5431.3284063756</DistanceMeters>
          </Trackpoint>
          <Trackpoint>
            <Time>2021-10-20T06:24:10.000Z</Time>
            <Position>
              <LatitudeDegrees>39.02663611806929111480712890625</LatitudeDegrees>
              <LongitudeDegrees>-6.88485813327133655548095703125</LongitudeDegrees>
            </Position>
            <AltitudeMeters>222</AltitudeMeters>
            <DistanceMeters>5445.5077805517</DistanceMeters>
          </Trackpoint>
          <Trackpoint>
            <Time>2021-10-20T06:24:18.000Z</Time>
            <Position>
              <LatitudeDegrees>39.026747010648250579833984375</LatitudeDegrees>
              <LongitudeDegrees>-6.8850607238709926605224609375</LongitudeDegrees>
            </Position>
            <AltitudeMeters>221.399993896484375</AltitudeMeters>
            <DistanceMeters>5466.9364626682</DistanceMeters>
          </Trackpoint>
          <Trackpoint>
            <Time>2021-10-20T06:24:25.000Z</Time>
            <Position>
              <LatitudeDegrees>39.02684968896210193634033203125</LatitudeDegrees>
              <LongitudeDegrees>-6.885222494602203369140625</LongitudeDegrees>
            </Position>
            <AltitudeMeters>220.8000030517578125</AltitudeMeters>
            <DistanceMeters>5484.9990389496</DistanceMeters>
          </Trackpoint>
          <Trackpoint>
            <Time>2021-10-20T06:24:30.000Z</Time>
            <Position>
              <LatitudeDegrees>39.02692931704223155975341796875</LatitudeDegrees>
              <LongitudeDegrees>-6.88535601831972599029541015625</LongitudeDegrees>
            </Position>
            <AltitudeMeters>219.8000030517578125</AltitudeMeters>
            <DistanceMeters>5499.5539554171</DistanceMeters>
          </Trackpoint>
          <Trackpoint>
            <Time>2021-10-20T06:24:38.000Z</Time>
            <Position>
              <LatitudeDegrees>39.027053453028202056884765625</LatitudeDegrees>
              <LongitudeDegrees>-6.88554142601788043975830078125</LongitudeDegrees>
            </Position>
            <AltitudeMeters>219.1999969482421875</AltitudeMeters>
            <DistanceMeters>5520.7178362468</DistanceMeters>
          </Trackpoint>
          <Trackpoint>
            <Time>2021-10-20T06:24:43.000Z</Time>
            <Position>
              <LatitudeDegrees>39.027136601507663726806640625</LatitudeDegrees>
              <LongitudeDegrees>-6.885675452649593353271484375</LongitudeDegrees>
            </Position>
            <AltitudeMeters>219.1999969482421875</AltitudeMeters>
            <DistanceMeters>5535.5480938935</DistanceMeters>
          </Trackpoint>
          <Trackpoint>
            <Time>2021-10-20T06:24:50.000Z</Time>
            <Position>
              <LatitudeDegrees>39.027225784957408905029296875</LatitudeDegrees>
              <LongitudeDegrees>-6.88588458113372325897216796875</LongitudeDegrees>
            </Position>
            <AltitudeMeters>220</AltitudeMeters>
            <DistanceMeters>5556.1756774175</DistanceMeters>
          </Trackpoint>
          <Trackpoint>
            <Time>2021-10-20T06:24:57.000Z</Time>
            <Position>
              <LatitudeDegrees>39.02729057706892490386962890625</LatitudeDegrees>
              <LongitudeDegrees>-6.886116005480289459228515625</LongitudeDegrees>
            </Position>
            <AltitudeMeters>220.600006103515625</AltitudeMeters>
            <DistanceMeters>5577.4455347241</DistanceMeters>
          </Trackpoint>
          <Trackpoint>
            <Time>2021-10-20T06:25:04.000Z</Time>
            <Position>
              <LatitudeDegrees>39.0273151360452175140380859375</LatitudeDegrees>
              <LongitudeDegrees>-6.8863465078175067901611328125</LongitudeDegrees>
            </Position>
            <AltitudeMeters>220.600006103515625</AltitudeMeters>
            <DistanceMeters>5597.5622659654</DistanceMeters>
          </Trackpoint>
          <Trackpoint>
            <Time>2021-10-20T06:25:12.000Z</Time>
            <Position>
              <LatitudeDegrees>39.02729828841984272003173828125</LatitudeDegrees>
              <LongitudeDegrees>-6.88660986721515655517578125</LongitudeDegrees>
            </Position>
            <AltitudeMeters>220.399993896484375</AltitudeMeters>
            <DistanceMeters>5620.410608999</DistanceMeters>
          </Trackpoint>
          <Trackpoint>
            <Time>2021-10-20T06:25:18.000Z</Time>
            <Position>
              <LatitudeDegrees>39.027316309511661529541015625</LatitudeDegrees>
              <LongitudeDegrees>-6.88685101456940174102783203125</LongitudeDegrees>
            </Position>
            <AltitudeMeters>219</AltitudeMeters>
            <DistanceMeters>5641.357480231</DistanceMeters>
          </Trackpoint>
          <Trackpoint>
            <Time>2021-10-20T06:25:24.000Z</Time>
            <Position>
              <LatitudeDegrees>39.02734346687793731689453125</LatitudeDegrees>
              <LongitudeDegrees>-6.88709191046655178070068359375</LongitudeDegrees>
            </Position>
            <AltitudeMeters>217.600006103515625</AltitudeMeters>
            <DistanceMeters>5662.4045567509</DistanceMeters>
          </Trackpoint>
          <Trackpoint>
            <Time>2021-10-20T06:25:30.000Z</Time>
            <Position>
              <LatitudeDegrees>39.02739551849663257598876953125</LatitudeDegrees>
              <LongitudeDegrees>-6.88731587491929531097412109375</LongitudeDegrees>
            </Position>
            <AltitudeMeters>216</AltitudeMeters>
            <DistanceMeters>5682.6177909994</DistanceMeters>
          </Trackpoint>
          <Trackpoint>
            <Time>2021-10-20T06:25:36.000Z</Time>
            <Position>
              <LatitudeDegrees>39.02743759565055370330810546875</LatitudeDegrees>
              <LongitudeDegrees>-6.887566745281219482421875</LongitudeDegrees>
            </Position>
            <AltitudeMeters>214.1999969482421875</AltitudeMeters>
            <DistanceMeters>5704.8089196051</DistanceMeters>
          </Trackpoint>
          <Trackpoint>
            <Time>2021-10-20T06:25:42.000Z</Time>
            <Position>
              <LatitudeDegrees>39.02744312770664691925048828125</LatitudeDegrees>
              <LongitudeDegrees>-6.88779800198972225189208984375</LongitudeDegrees>
            </Position>
            <AltitudeMeters>212.600006103515625</AltitudeMeters>
            <DistanceMeters>5724.8135665094</DistanceMeters>
          </Trackpoint>
          <Trackpoint>
            <Time>2021-10-20T06:25:49.000Z</Time>
            <Position>
              <LatitudeDegrees>39.0274787507951259613037109375</LatitudeDegrees>
              <LongitudeDegrees>-6.8880567513406276702880859375</LongitudeDegrees>
            </Position>
            <AltitudeMeters>210.8000030517578125</AltitudeMeters>
            <DistanceMeters>5747.5348891025</DistanceMeters>
          </Trackpoint>
          <Trackpoint>
            <Time>2021-10-20T06:25:50.000Z</Time>
            <Position>
              <LatitudeDegrees>39.027481935918331146240234375</LatitudeDegrees>
              <LongitudeDegrees>-6.88809371553361415863037109375</LongitudeDegrees>
            </Position>
            <AltitudeMeters>210.600006103515625</AltitudeMeters>
            <DistanceMeters>5750.7517925211</DistanceMeters>
          </Trackpoint>
          <Trackpoint>
            <Time>2021-10-20T06:25:55.000Z</Time>
            <Position>
              <LatitudeDegrees>39.02749710716307163238525390625</LatitudeDegrees>
              <LongitudeDegrees>-6.88826889730989933013916015625</LongitudeDegrees>
            </Position>
            <AltitudeMeters>209.600006103515625</AltitudeMeters>
            <DistanceMeters>5765.9925489449</DistanceMeters>
          </Trackpoint>
          <Trackpoint>
            <Time>2021-10-20T06:26:01.000Z</Time>
            <Position>
              <LatitudeDegrees>39.02751420624554157257080078125</LatitudeDegrees>
              <LongitudeDegrees>-6.8885070271790027618408203125</LongitudeDegrees>
            </Position>
            <AltitudeMeters>208.8000030517578125</AltitudeMeters>
            <DistanceMeters>5786.669977689</DistanceMeters>
          </Trackpoint>
          <Trackpoint>
            <Time>2021-10-20T06:26:08.000Z</Time>
            <Position>
              <LatitudeDegrees>39.027506411075592041015625</LatitudeDegrees>
              <LongitudeDegrees>-6.88876711763441562652587890625</LongitudeDegrees>
            </Position>
            <AltitudeMeters>208</AltitudeMeters>
            <DistanceMeters>5809.1752650159</DistanceMeters>
          </Trackpoint>
          <Trackpoint>
            <Time>2021-10-20T06:26:14.000Z</Time>
            <Position>
              <LatitudeDegrees>39.02751169167459011077880859375</LatitudeDegrees>
              <LongitudeDegrees>-6.8890005536377429962158203125</LongitudeDegrees>
            </Position>
            <AltitudeMeters>206.399993896484375</AltitudeMeters>
            <DistanceMeters>5829.3679387307</DistanceMeters>
          </Trackpoint>
          <Trackpoint>
            <Time>2021-10-20T06:26:15.000Z</Time>
            <Position>
              <LatitudeDegrees>39.02751252986490726470947265625</LatitudeDegrees>
              <LongitudeDegrees>-6.88904137350618839263916015625</LongitudeDegrees>
            </Position>
            <AltitudeMeters>206.1999969482421875</AltitudeMeters>
            <DistanceMeters>5832.8980244934</DistanceMeters>
          </Trackpoint>
          <Trackpoint>
            <Time>2021-10-20T06:26:23.000Z</Time>
            <Position>
              <LatitudeDegrees>39.0275238454341888427734375</LatitudeDegrees>
              <LongitudeDegrees>-6.88929836265742778778076171875</LongitudeDegrees>
            </Position>
            <AltitudeMeters>205.399993896484375</AltitudeMeters>
            <DistanceMeters>5855.1541655169</DistanceMeters>
          </Trackpoint>
          <Trackpoint>
            <Time>2021-10-20T06:26:31.000Z</Time>
            <Position>
              <LatitudeDegrees>39.0275240130722522735595703125</LatitudeDegrees>
              <LongitudeDegrees>-6.8895475566387176513671875</LongitudeDegrees>
            </Position>
            <AltitudeMeters>205</AltitudeMeters>
            <DistanceMeters>5876.7005169496</DistanceMeters>
          </Trackpoint>
          <Trackpoint>
            <Time>2021-10-20T06:26:38.000Z</Time>
            <Position>
              <LatitudeDegrees>39.0275186486542224884033203125</LatitudeDegrees>
              <LongitudeDegrees>-6.8897804059088230133056640625</LongitudeDegrees>
            </Position>
            <AltitudeMeters>204.600006103515625</AltitudeMeters>
            <DistanceMeters>5896.8423700023</DistanceMeters>
          </Trackpoint>
          <Trackpoint>
            <Time>2021-10-20T06:26:45.000Z</Time>
            <Position>
              <LatitudeDegrees>39.02751336805522441864013671875</LatitudeDegrees>
              <LongitudeDegrees>-6.8900506384670734405517578125</LongitudeDegrees>
            </Position>
            <AltitudeMeters>204.399993896484375</AltitudeMeters>
            <DistanceMeters>5920.2152717184</DistanceMeters>
          </Trackpoint>
          <Trackpoint>
            <Time>2021-10-20T06:26:50.000Z</Time>
            <Position>
              <LatitudeDegrees>39.02753658592700958251953125</LatitudeDegrees>
              <LongitudeDegrees>-6.89026077277958393096923828125</LongitudeDegrees>
            </Position>
            <AltitudeMeters>204.8000030517578125</AltitudeMeters>
            <DistanceMeters>5938.5669945546</DistanceMeters>
          </Trackpoint>
          <Trackpoint>
            <Time>2021-10-20T06:26:52.000Z</Time>
            <Position>
              <LatitudeDegrees>39.0275407768785953521728515625</LatitudeDegrees>
              <LongitudeDegrees>-6.89032246358692646026611328125</LongitudeDegrees>
            </Position>
            <AltitudeMeters>204.8000030517578125</AltitudeMeters>
            <DistanceMeters>5943.9206346838</DistanceMeters>
          </Trackpoint>
          <Trackpoint>
            <Time>2021-10-20T06:26:58.000Z</Time>
            <Position>
              <LatitudeDegrees>39.0275484882295131683349609375</LatitudeDegrees>
              <LongitudeDegrees>-6.89057375304400920867919921875</LongitudeDegrees>
            </Position>
            <AltitudeMeters>204.8000030517578125</AltitudeMeters>
            <DistanceMeters>5965.6649397452</DistanceMeters>
          </Trackpoint>
          <Trackpoint>
            <Time>2021-10-20T06:27:04.000Z</Time>
            <Position>
              <LatitudeDegrees>39.02756474912166595458984375</LatitudeDegrees>
              <LongitudeDegrees>-6.890813224017620086669921875</LongitudeDegrees>
            </Position>
            <AltitudeMeters>203.8000030517578125</AltitudeMeters>
            <DistanceMeters>5986.4495219416</DistanceMeters>
          </Trackpoint>
          <Trackpoint>
            <Time>2021-10-20T06:27:10.000Z</Time>
            <Position>
              <LatitudeDegrees>39.0275270305573940277099609375</LatitudeDegrees>
              <LongitudeDegrees>-6.891064010560512542724609375</LongitudeDegrees>
            </Position>
            <AltitudeMeters>203</AltitudeMeters>
            <DistanceMeters>6008.5362326441</DistanceMeters>
          </Trackpoint>
          <Trackpoint>
            <Time>2021-10-20T06:27:16.000Z</Time>
            <Position>
              <LatitudeDegrees>39.02751512825489044189453125</LatitudeDegrees>
              <LongitudeDegrees>-6.89131580293178558349609375</LongitudeDegrees>
            </Position>
            <AltitudeMeters>203</AltitudeMeters>
            <DistanceMeters>6030.3477100671</DistanceMeters>
          </Trackpoint>
          <Trackpoint>
            <Time>2021-10-20T06:27:23.000Z</Time>
            <Position>
              <LatitudeDegrees>39.0274224244058132171630859375</LatitudeDegrees>
              <LongitudeDegrees>-6.89152912236750125885009765625</LongitudeDegrees>
            </Position>
            <AltitudeMeters>203.1999969482421875</AltitudeMeters>
            <DistanceMeters>6051.4821298894</DistanceMeters>
          </Trackpoint>
          <Trackpoint>
            <Time>2021-10-20T06:27:27.000Z</Time>
            <Position>
              <LatitudeDegrees>39.02733667753636837005615234375</LatitudeDegrees>
              <LongitudeDegrees>-6.89160975627601146697998046875</LongitudeDegrees>
            </Position>
            <AltitudeMeters>203.600006103515625</AltitudeMeters>
            <DistanceMeters>6063.3014057804</DistanceMeters>
          </Trackpoint>
          <Trackpoint>
            <Time>2021-10-20T06:27:35.000Z</Time>
            <Position>
              <LatitudeDegrees>39.02715705335140228271484375</LatitudeDegrees>
              <LongitudeDegrees>-6.89174227416515350341796875</LongitudeDegrees>
            </Position>
            <AltitudeMeters>205.399993896484375</AltitudeMeters>
            <DistanceMeters>6086.3445512918</DistanceMeters>
          </Trackpoint>
          <Trackpoint>
            <Time>2021-10-20T06:27:42.000Z</Time>
            <Position>
              <LatitudeDegrees>39.02705286629498004913330078125</LatitudeDegrees>
              <LongitudeDegrees>-6.8919623829424381256103515625</LongitudeDegrees>
            </Position>
            <AltitudeMeters>205.8000030517578125</AltitudeMeters>
            <DistanceMeters>6108.6306964177</DistanceMeters>
          </Trackpoint>
          <Trackpoint>
            <Time>2021-10-20T06:27:48.000Z</Time>
            <Position>
              <LatitudeDegrees>39.02699209749698638916015625</LatitudeDegrees>
              <LongitudeDegrees>-6.8922061286866664886474609375</LongitudeDegrees>
            </Position>
            <AltitudeMeters>205.600006103515625</AltitudeMeters>
            <DistanceMeters>6130.7647825156</DistanceMeters>
          </Trackpoint>
          <Trackpoint>
            <Time>2021-10-20T06:27:51.000Z</Time>
            <Position>
              <LatitudeDegrees>39.02696938253939151763916015625</LatitudeDegrees>
              <LongitudeDegrees>-6.8923271633684635162353515625</LongitudeDegrees>
            </Position>
            <AltitudeMeters>205.600006103515625</AltitudeMeters>
            <DistanceMeters>6141.5309360179</DistanceMeters>
          </Trackpoint>
          <Trackpoint>
            <Time>2021-10-20T06:27:58.000Z</Time>
            <Position>
              <LatitudeDegrees>39.026936106383800506591796875</LatitudeDegrees>
              <LongitudeDegrees>-6.89257887192070484161376953125</LongitudeDegrees>
            </Position>
            <AltitudeMeters>205.600006103515625</AltitudeMeters>
            <DistanceMeters>6163.6078322215</DistanceMeters>
          </Trackpoint>
          <Trackpoint>
            <Time>2021-10-20T06:28:05.000Z</Time>
            <Position>
              <LatitudeDegrees>39.026922024786472320556640625</LatitudeDegrees>
              <LongitudeDegrees>-6.892850697040557861328125</LongitudeDegrees>
            </Position>
            <AltitudeMeters>204.399993896484375</AltitudeMeters>
            <DistanceMeters>6187.1631510922</DistanceMeters>
          </Trackpoint>
          <Trackpoint>
            <Time>2021-10-20T06:28:11.000Z</Time>
            <Position>
              <LatitudeDegrees>39.0269181691110134124755859375</LatitudeDegrees>
              <LongitudeDegrees>-6.893094442784786224365234375</LongitudeDegrees>
            </Position>
            <AltitudeMeters>202.8000030517578125</AltitudeMeters>
            <DistanceMeters>6208.243237947</DistanceMeters>
          </Trackpoint>
          <Trackpoint>
            <Time>2021-10-20T06:28:17.000Z</Time>
            <Position>
              <LatitudeDegrees>39.0269134752452373504638671875</LatitudeDegrees>
              <LongitudeDegrees>-6.89334950409829616546630859375</LongitudeDegrees>
            </Position>
            <AltitudeMeters>201</AltitudeMeters>
            <DistanceMeters>6230.3031529433</DistanceMeters>
          </Trackpoint>
          <Trackpoint>
            <Time>2021-10-20T06:28:23.000Z</Time>
            <Position>
              <LatitudeDegrees>39.0269050933420658111572265625</LatitudeDegrees>
              <LongitudeDegrees>-6.8936189822852611541748046875</LongitudeDegrees>
            </Position>
            <AltitudeMeters>200</AltitudeMeters>
            <DistanceMeters>6253.6224840541</DistanceMeters>
          </Trackpoint>
          <Trackpoint>
            <Time>2021-10-20T06:28:30.000Z</Time>
            <Position>
              <LatitudeDegrees>39.02691054157912731170654296875</LatitudeDegrees>
              <LongitudeDegrees>-6.8938858620822429656982421875</LongitudeDegrees>
            </Position>
            <AltitudeMeters>200.1999969482421875</AltitudeMeters>
            <DistanceMeters>6276.7063487859</DistanceMeters>
          </Trackpoint>
          <Trackpoint>
            <Time>2021-10-20T06:28:33.000Z</Time>
            <Position>
              <LatitudeDegrees>39.02689863927662372589111328125</LatitudeDegrees>
              <LongitudeDegrees>-6.893958784639835357666015625</LongitudeDegrees>
            </Position>
            <AltitudeMeters>200.1999969482421875</AltitudeMeters>
            <DistanceMeters>6283.1499728818</DistanceMeters>
          </Trackpoint>
          <Trackpoint>
            <Time>2021-10-20T06:28:38.000Z</Time>
            <Position>
              <LatitudeDegrees>39.0267729945480823516845703125</LatitudeDegrees>
              <LongitudeDegrees>-6.893972866237163543701171875</LongitudeDegrees>
            </Position>
            <AltitudeMeters>201</AltitudeMeters>
            <DistanceMeters>6297.1872553141</DistanceMeters>
          </Trackpoint>
          <Trackpoint>
            <Time>2021-10-20T06:28:40.000Z</Time>
            <Position>
              <LatitudeDegrees>39.0267213620245456695556640625</LatitudeDegrees>
              <LongitudeDegrees>-6.89396909438073635101318359375</LongitudeDegrees>
            </Position>
            <AltitudeMeters>201.1999969482421875</AltitudeMeters>
            <DistanceMeters>6302.9440235524</DistanceMeters>
          </Trackpoint>
          <Trackpoint>
            <Time>2021-10-20T06:28:47.000Z</Time>
            <Position>
              <LatitudeDegrees>39.02652882970869541168212890625</LatitudeDegrees>
              <LongitudeDegrees>-6.8939676694571971893310546875</LongitudeDegrees>
            </Position>
            <AltitudeMeters>201.8000030517578125</AltitudeMeters>
            <DistanceMeters>6324.3737591465</DistanceMeters>
          </Trackpoint>
          <Trackpoint>
            <Time>2021-10-20T06:28:52.000Z</Time>
            <Position>
              <LatitudeDegrees>39.026401340961456298828125</LatitudeDegrees>
              <LongitudeDegrees>-6.8940243311226367950439453125</LongitudeDegrees>
            </Position>
            <AltitudeMeters>202</AltitudeMeters>
            <DistanceMeters>6339.3855740846</DistanceMeters>
          </Trackpoint>
        </Track>
      </Lap>
    </Activity>
  </Activities>
</TrainingCenterDatabase>
